<?xml version="1.0" encoding="UTF-8" standalone="no" ?>
<gpx xmlns="http://www.topografix.com/GPX/1/1" xmlns:xsi="http://www.w3.org/2001/XMLSchema-instance" xsi:schemaLocation="http://www.topografix.com/GPX/1/1 http://www.topografix.com/GPX/1/1/gpx.xsd" version="1.1" creator="VisuGPX - https://www.visugpx.com">
  <metadata>
    <name>CASTEL ST DENIS</name>
    <desc><![CDATA[CASTEL ST DENIS]]></desc>
  </metadata>
  <trk>
    <name><![CDATA[CASTEL ST DENIS]]></name>
    <trkseg>
      <trkpt lat="47.09836" lon="6.07561">
        <ele>314.1</ele>
        <time>2012-03-29T12:21:30Z</time>
      </trkpt>
      <trkpt lat="47.09836" lon="6.07561">
        <ele>383.3</ele>
        <time>2012-03-29T12:27:07Z</time>
      </trkpt>
      <trkpt lat="47.09818" lon="6.07547">
        <ele>405.8</ele>
        <time>2012-03-29T12:27:15Z</time>
      </trkpt>
      <trkpt lat="47.09818" lon="6.07547">
        <ele>314.7</ele>
        <time>2012-03-29T12:27:26Z</time>
      </trkpt>
      <trkpt lat="47.09818" lon="6.07547">
        <ele>314.7</ele>
        <time>2012-03-29T12:29:59Z</time>
      </trkpt>
      <trkpt lat="47.09818" lon="6.07547">
        <ele>314.7</ele>
        <time>2012-03-29T12:30:10Z</time>
      </trkpt>
      <trkpt lat="47.09818" lon="6.07547">
        <ele>314.7</ele>
        <time>2012-03-29T12:31:55Z</time>
      </trkpt>
      <trkpt lat="47.09794" lon="6.07505">
        <ele>378.7</ele>
        <time>2012-03-29T12:31:59Z</time>
      </trkpt>
      <trkpt lat="47.09792" lon="6.07515">
        <ele>379.3</ele>
        <time>2012-03-29T12:32:04Z</time>
      </trkpt>
      <trkpt lat="47.09792" lon="6.07515">
        <ele>324.7</ele>
        <time>2012-03-29T12:32:15Z</time>
      </trkpt>
      <trkpt lat="47.09792" lon="6.07515">
        <ele>324.7</ele>
        <time>2012-03-29T12:32:35Z</time>
      </trkpt>
      <trkpt lat="47.09793" lon="6.07542">
        <ele>377.2</ele>
        <time>2012-03-29T12:32:37Z</time>
      </trkpt>
      <trkpt lat="47.09792" lon="6.07553">
        <ele>376.5</ele>
        <time>2012-03-29T12:32:40Z</time>
      </trkpt>
      <trkpt lat="47.09789" lon="6.07561">
        <ele>378.1</ele>
        <time>2012-03-29T12:32:42Z</time>
      </trkpt>
      <trkpt lat="47.09785" lon="6.07581">
        <ele>378</ele>
        <time>2012-03-29T12:32:45Z</time>
      </trkpt>
      <trkpt lat="47.09781" lon="6.07595">
        <ele>377.2</ele>
        <time>2012-03-29T12:32:48Z</time>
      </trkpt>
      <trkpt lat="47.09777" lon="6.07604">
        <ele>380</ele>
        <time>2012-03-29T12:32:53Z</time>
      </trkpt>
      <trkpt lat="47.09775" lon="6.07613">
        <ele>386.1</ele>
        <time>2012-03-29T12:33:01Z</time>
      </trkpt>
      <trkpt lat="47.09771" lon="6.07621">
        <ele>387.3</ele>
        <time>2012-03-29T12:33:05Z</time>
      </trkpt>
      <trkpt lat="47.09771" lon="6.07621">
        <ele>332.9</ele>
        <time>2012-03-29T12:33:16Z</time>
      </trkpt>
      <trkpt lat="47.09771" lon="6.07621">
        <ele>332.9</ele>
        <time>2012-03-29T12:33:25Z</time>
      </trkpt>
      <trkpt lat="47.09762" lon="6.07637">
        <ele>388.9</ele>
        <time>2012-03-29T12:33:31Z</time>
      </trkpt>
      <trkpt lat="47.09759" lon="6.07646">
        <ele>390.6</ele>
        <time>2012-03-29T12:33:39Z</time>
      </trkpt>
      <trkpt lat="47.09756" lon="6.07656">
        <ele>390.1</ele>
        <time>2012-03-29T12:33:45Z</time>
      </trkpt>
      <trkpt lat="47.09756" lon="6.07656">
        <ele>343</ele>
        <time>2012-03-29T12:33:56Z</time>
      </trkpt>
      <trkpt lat="47.09756" lon="6.07656">
        <ele>343</ele>
        <time>2012-03-29T12:35:24Z</time>
      </trkpt>
      <trkpt lat="47.09757" lon="6.07678">
        <ele>387.3</ele>
        <time>2012-03-29T12:35:26Z</time>
      </trkpt>
      <trkpt lat="47.09756" lon="6.07692">
        <ele>387.4</ele>
        <time>2012-03-29T12:35:29Z</time>
      </trkpt>
      <trkpt lat="47.09754" lon="6.07702">
        <ele>388</ele>
        <time>2012-03-29T12:35:32Z</time>
      </trkpt>
      <trkpt lat="47.09749" lon="6.0771">
        <ele>396.4</ele>
        <time>2012-03-29T12:35:39Z</time>
      </trkpt>
      <trkpt lat="47.09745" lon="6.0772">
        <ele>397.3</ele>
        <time>2012-03-29T12:35:42Z</time>
      </trkpt>
      <trkpt lat="47.0974" lon="6.07729">
        <ele>403</ele>
        <time>2012-03-29T12:35:48Z</time>
      </trkpt>
      <trkpt lat="47.09734" lon="6.07732">
        <ele>403.2</ele>
        <time>2012-03-29T12:35:52Z</time>
      </trkpt>
      <trkpt lat="47.09734" lon="6.07732">
        <ele>350.8</ele>
        <time>2012-03-29T12:36:03Z</time>
      </trkpt>
      <trkpt lat="47.09734" lon="6.07732">
        <ele>350.8</ele>
        <time>2012-03-29T12:36:05Z</time>
      </trkpt>
      <trkpt lat="47.09732" lon="6.07753">
        <ele>406.8</ele>
        <time>2012-03-29T12:36:09Z</time>
      </trkpt>
      <trkpt lat="47.09732" lon="6.07765">
        <ele>410.1</ele>
        <time>2012-03-29T12:36:15Z</time>
      </trkpt>
      <trkpt lat="47.09733" lon="6.07775">
        <ele>412.9</ele>
        <time>2012-03-29T12:36:20Z</time>
      </trkpt>
      <trkpt lat="47.09733" lon="6.07786">
        <ele>415.6</ele>
        <time>2012-03-29T12:36:27Z</time>
      </trkpt>
      <trkpt lat="47.09737" lon="6.07795">
        <ele>418.2</ele>
        <time>2012-03-29T12:36:31Z</time>
      </trkpt>
      <trkpt lat="47.09734" lon="6.07807">
        <ele>420.2</ele>
        <time>2012-03-29T12:36:37Z</time>
      </trkpt>
      <trkpt lat="47.09737" lon="6.07815">
        <ele>419.2</ele>
        <time>2012-03-29T12:36:44Z</time>
      </trkpt>
      <trkpt lat="47.09739" lon="6.07824">
        <ele>419.9</ele>
        <time>2012-03-29T12:36:50Z</time>
      </trkpt>
      <trkpt lat="47.09737" lon="6.07833">
        <ele>420.9</ele>
        <time>2012-03-29T12:36:56Z</time>
      </trkpt>
      <trkpt lat="47.09739" lon="6.07841">
        <ele>422.4</ele>
        <time>2012-03-29T12:37:04Z</time>
      </trkpt>
      <trkpt lat="47.09745" lon="6.07847">
        <ele>425.1</ele>
        <time>2012-03-29T12:37:11Z</time>
      </trkpt>
      <trkpt lat="47.09744" lon="6.07857">
        <ele>425.9</ele>
        <time>2012-03-29T12:37:18Z</time>
      </trkpt>
      <trkpt lat="47.09744" lon="6.07867">
        <ele>425.9</ele>
        <time>2012-03-29T12:37:24Z</time>
      </trkpt>
      <trkpt lat="47.09745" lon="6.07877">
        <ele>426.7</ele>
        <time>2012-03-29T12:37:32Z</time>
      </trkpt>
      <trkpt lat="47.09745" lon="6.07886">
        <ele>427.4</ele>
        <time>2012-03-29T12:37:40Z</time>
      </trkpt>
      <trkpt lat="47.09745" lon="6.07886">
        <ele>365.5</ele>
        <time>2012-03-29T12:37:51Z</time>
      </trkpt>
      <trkpt lat="47.09745" lon="6.07886">
        <ele>365.5</ele>
        <time>2012-03-29T12:38:01Z</time>
      </trkpt>
      <trkpt lat="47.09732" lon="6.0789">
        <ele>424.6</ele>
        <time>2012-03-29T12:38:07Z</time>
      </trkpt>
      <trkpt lat="47.09725" lon="6.07887">
        <ele>424.5</ele>
        <time>2012-03-29T12:38:11Z</time>
      </trkpt>
      <trkpt lat="47.09718" lon="6.07887">
        <ele>425</ele>
        <time>2012-03-29T12:38:14Z</time>
      </trkpt>
      <trkpt lat="47.09711" lon="6.07885">
        <ele>425.2</ele>
        <time>2012-03-29T12:38:19Z</time>
      </trkpt>
      <trkpt lat="47.09708" lon="6.07876">
        <ele>426.4</ele>
        <time>2012-03-29T12:38:25Z</time>
      </trkpt>
      <trkpt lat="47.09703" lon="6.07871">
        <ele>427.1</ele>
        <time>2012-03-29T12:38:35Z</time>
      </trkpt>
      <trkpt lat="47.09695" lon="6.07867">
        <ele>426.7</ele>
        <time>2012-03-29T12:38:41Z</time>
      </trkpt>
      <trkpt lat="47.0969" lon="6.07861">
        <ele>426.8</ele>
        <time>2012-03-29T12:38:51Z</time>
      </trkpt>
      <trkpt lat="47.09682" lon="6.07859">
        <ele>427.9</ele>
        <time>2012-03-29T12:38:56Z</time>
      </trkpt>
      <trkpt lat="47.09676" lon="6.07856">
        <ele>427.6</ele>
        <time>2012-03-29T12:39:03Z</time>
      </trkpt>
      <trkpt lat="47.09675" lon="6.07847">
        <ele>428</ele>
        <time>2012-03-29T12:39:08Z</time>
      </trkpt>
      <trkpt lat="47.09667" lon="6.07845">
        <ele>427.2</ele>
        <time>2012-03-29T12:39:16Z</time>
      </trkpt>
      <trkpt lat="47.0966" lon="6.07849">
        <ele>426.5</ele>
        <time>2012-03-29T12:39:25Z</time>
      </trkpt>
      <trkpt lat="47.0966" lon="6.07849">
        <ele>374.6</ele>
        <time>2012-03-29T12:39:36Z</time>
      </trkpt>
      <trkpt lat="47.0966" lon="6.07849">
        <ele>374.6</ele>
        <time>2012-03-29T12:40:07Z</time>
      </trkpt>
      <trkpt lat="47.09652" lon="6.07833">
        <ele>428.8</ele>
        <time>2012-03-29T12:40:15Z</time>
      </trkpt>
      <trkpt lat="47.09652" lon="6.07833">
        <ele>373.5</ele>
        <time>2012-03-29T12:40:27Z</time>
      </trkpt>
      <trkpt lat="47.09652" lon="6.07833">
        <ele>373.5</ele>
        <time>2012-03-29T12:43:07Z</time>
      </trkpt>
      <trkpt lat="47.09639" lon="6.07831">
        <ele>426.4</ele>
        <time>2012-03-29T12:43:15Z</time>
      </trkpt>
      <trkpt lat="47.09639" lon="6.07831">
        <ele>374</ele>
        <time>2012-03-29T12:43:26Z</time>
      </trkpt>
      <trkpt lat="47.09639" lon="6.07831">
        <ele>374</ele>
        <time>2012-03-29T12:43:40Z</time>
      </trkpt>
      <trkpt lat="47.09626" lon="6.07825">
        <ele>423.2</ele>
        <time>2012-03-29T12:43:47Z</time>
      </trkpt>
      <trkpt lat="47.09618" lon="6.07822">
        <ele>422.8</ele>
        <time>2012-03-29T12:43:54Z</time>
      </trkpt>
      <trkpt lat="47.09611" lon="6.07825">
        <ele>421.6</ele>
        <time>2012-03-29T12:44:00Z</time>
      </trkpt>
      <trkpt lat="47.09603" lon="6.07825">
        <ele>423.5</ele>
        <time>2012-03-29T12:44:07Z</time>
      </trkpt>
      <trkpt lat="47.09596" lon="6.07825">
        <ele>423.3</ele>
        <time>2012-03-29T12:44:14Z</time>
      </trkpt>
      <trkpt lat="47.09596" lon="6.07825">
        <ele>375</ele>
        <time>2012-03-29T12:44:25Z</time>
      </trkpt>
      <trkpt lat="47.09596" lon="6.07825">
        <ele>375</ele>
        <time>2012-03-29T12:44:36Z</time>
      </trkpt>
      <trkpt lat="47.09587" lon="6.07813">
        <ele>423.7</ele>
        <time>2012-03-29T12:44:46Z</time>
      </trkpt>
      <trkpt lat="47.0958" lon="6.07818">
        <ele>425.5</ele>
        <time>2012-03-29T12:44:51Z</time>
      </trkpt>
      <trkpt lat="47.09573" lon="6.07813">
        <ele>424.5</ele>
        <time>2012-03-29T12:44:59Z</time>
      </trkpt>
      <trkpt lat="47.09566" lon="6.07813">
        <ele>425.4</ele>
        <time>2012-03-29T12:45:09Z</time>
      </trkpt>
      <trkpt lat="47.09566" lon="6.07813">
        <ele>374.4</ele>
        <time>2012-03-29T12:45:20Z</time>
      </trkpt>
      <trkpt lat="47.09566" lon="6.07813">
        <ele>374.4</ele>
        <time>2012-03-29T12:45:35Z</time>
      </trkpt>
      <trkpt lat="47.09572" lon="6.07834">
        <ele>421.7</ele>
        <time>2012-03-29T12:45:41Z</time>
      </trkpt>
      <trkpt lat="47.09577" lon="6.07839">
        <ele>422.1</ele>
        <time>2012-03-29T12:45:48Z</time>
      </trkpt>
      <trkpt lat="47.09581" lon="6.07847">
        <ele>422.9</ele>
        <time>2012-03-29T12:45:54Z</time>
      </trkpt>
      <trkpt lat="47.09584" lon="6.07856">
        <ele>423.8</ele>
        <time>2012-03-29T12:45:59Z</time>
      </trkpt>
      <trkpt lat="47.09589" lon="6.07862">
        <ele>424.1</ele>
        <time>2012-03-29T12:46:08Z</time>
      </trkpt>
      <trkpt lat="47.09595" lon="6.07869">
        <ele>421.8</ele>
        <time>2012-03-29T12:46:17Z</time>
      </trkpt>
      <trkpt lat="47.09602" lon="6.07871">
        <ele>422.2</ele>
        <time>2012-03-29T12:46:24Z</time>
      </trkpt>
      <trkpt lat="47.09607" lon="6.07877">
        <ele>424.3</ele>
        <time>2012-03-29T12:46:34Z</time>
      </trkpt>
      <trkpt lat="47.09614" lon="6.0788">
        <ele>422.9</ele>
        <time>2012-03-29T12:46:40Z</time>
      </trkpt>
      <trkpt lat="47.09614" lon="6.0788">
        <ele>380.6</ele>
        <time>2012-03-29T12:46:51Z</time>
      </trkpt>
      <trkpt lat="47.09614" lon="6.0788">
        <ele>380.6</ele>
        <time>2012-03-29T12:46:56Z</time>
      </trkpt>
      <trkpt lat="47.09627" lon="6.07884">
        <ele>424.9</ele>
        <time>2012-03-29T12:47:00Z</time>
      </trkpt>
      <trkpt lat="47.09633" lon="6.07886">
        <ele>424.8</ele>
        <time>2012-03-29T12:47:04Z</time>
      </trkpt>
      <trkpt lat="47.09641" lon="6.07889">
        <ele>425.2</ele>
        <time>2012-03-29T12:47:08Z</time>
      </trkpt>
      <trkpt lat="47.09644" lon="6.07898">
        <ele>425.5</ele>
        <time>2012-03-29T12:47:16Z</time>
      </trkpt>
      <trkpt lat="47.09651" lon="6.07901">
        <ele>424.7</ele>
        <time>2012-03-29T12:47:26Z</time>
      </trkpt>
      <trkpt lat="47.09658" lon="6.07901">
        <ele>425.7</ele>
        <time>2012-03-29T12:47:31Z</time>
      </trkpt>
      <trkpt lat="47.09662" lon="6.07908">
        <ele>423.6</ele>
        <time>2012-03-29T12:47:38Z</time>
      </trkpt>
      <trkpt lat="47.09662" lon="6.07908">
        <ele>380.5</ele>
        <time>2012-03-29T12:47:49Z</time>
      </trkpt>
      <trkpt lat="47.09662" lon="6.07908">
        <ele>380.5</ele>
        <time>2012-03-29T12:48:53Z</time>
      </trkpt>
      <trkpt lat="47.0967" lon="6.07921">
        <ele>425.9</ele>
        <time>2012-03-29T12:48:56Z</time>
      </trkpt>
      <trkpt lat="47.09668" lon="6.07933">
        <ele>426.6</ele>
        <time>2012-03-29T12:49:03Z</time>
      </trkpt>
      <trkpt lat="47.09671" lon="6.07942">
        <ele>427.3</ele>
        <time>2012-03-29T12:49:07Z</time>
      </trkpt>
      <trkpt lat="47.0967" lon="6.07951">
        <ele>430.9</ele>
        <time>2012-03-29T12:49:15Z</time>
      </trkpt>
      <trkpt lat="47.09671" lon="6.0796">
        <ele>435</ele>
        <time>2012-03-29T12:49:20Z</time>
      </trkpt>
      <trkpt lat="47.09671" lon="6.0796">
        <ele>384.8</ele>
        <time>2012-03-29T12:49:31Z</time>
      </trkpt>
      <trkpt lat="47.09671" lon="6.0796">
        <ele>384.8</ele>
        <time>2012-03-29T12:49:36Z</time>
      </trkpt>
      <trkpt lat="47.09673" lon="6.07982">
        <ele>438.9</ele>
        <time>2012-03-29T12:49:43Z</time>
      </trkpt>
      <trkpt lat="47.09671" lon="6.07992">
        <ele>439.4</ele>
        <time>2012-03-29T12:49:53Z</time>
      </trkpt>
      <trkpt lat="47.09673" lon="6.08001">
        <ele>440.3</ele>
        <time>2012-03-29T12:50:00Z</time>
      </trkpt>
      <trkpt lat="47.09673" lon="6.08011">
        <ele>441.6</ele>
        <time>2012-03-29T12:50:08Z</time>
      </trkpt>
      <trkpt lat="47.09675" lon="6.0802">
        <ele>441.8</ele>
        <time>2012-03-29T12:50:16Z</time>
      </trkpt>
      <trkpt lat="47.09678" lon="6.0803">
        <ele>442.3</ele>
        <time>2012-03-29T12:50:24Z</time>
      </trkpt>
      <trkpt lat="47.09662" lon="6.08128">
        <ele>454</ele>
        <time>2012-03-29T12:52:31Z</time>
      </trkpt>
      <trkpt lat="47.0966" lon="6.08137">
        <ele>454.7</ele>
        <time>2012-03-29T12:52:39Z</time>
      </trkpt>
      <trkpt lat="47.09654" lon="6.08142">
        <ele>454.8</ele>
        <time>2012-03-29T12:52:43Z</time>
      </trkpt>
      <trkpt lat="47.09654" lon="6.08142">
        <ele>409.2</ele>
        <time>2012-03-29T12:52:54Z</time>
      </trkpt>
      <trkpt lat="47.09654" lon="6.08142">
        <ele>409.2</ele>
        <time>2012-03-29T12:52:55Z</time>
      </trkpt>
      <trkpt lat="47.09661" lon="6.08158">
        <ele>462.8</ele>
        <time>2012-03-29T12:53:06Z</time>
      </trkpt>
      <trkpt lat="47.09661" lon="6.08158">
        <ele>410.4</ele>
        <time>2012-03-29T12:53:17Z</time>
      </trkpt>
      <trkpt lat="47.09661" lon="6.08158">
        <ele>410.4</ele>
        <time>2012-03-29T12:53:26Z</time>
      </trkpt>
      <trkpt lat="47.09661" lon="6.08158">
        <ele>410.4</ele>
        <time>2012-03-29T12:53:37Z</time>
      </trkpt>
      <trkpt lat="47.09661" lon="6.08158">
        <ele>410.4</ele>
        <time>2012-03-29T12:54:17Z</time>
      </trkpt>
      <trkpt lat="47.09656" lon="6.08187">
        <ele>465</ele>
        <time>2012-03-29T12:54:24Z</time>
      </trkpt>
      <trkpt lat="47.0965" lon="6.08193">
        <ele>466.4</ele>
        <time>2012-03-29T12:54:28Z</time>
      </trkpt>
      <trkpt lat="47.09644" lon="6.082">
        <ele>467.7</ele>
        <time>2012-03-29T12:54:36Z</time>
      </trkpt>
      <trkpt lat="47.09644" lon="6.082">
        <ele>420.8</ele>
        <time>2012-03-29T12:54:48Z</time>
      </trkpt>
      <trkpt lat="47.09644" lon="6.082">
        <ele>420.8</ele>
        <time>2012-03-29T12:59:56Z</time>
      </trkpt>
      <trkpt lat="47.09646" lon="6.08222">
        <ele>466.3</ele>
        <time>2012-03-29T12:59:58Z</time>
      </trkpt>
      <trkpt lat="47.09645" lon="6.08232">
        <ele>464.8</ele>
        <time>2012-03-29T13:00:03Z</time>
      </trkpt>
      <trkpt lat="47.09645" lon="6.08232">
        <ele>425.9</ele>
        <time>2012-03-29T13:00:15Z</time>
      </trkpt>
      <trkpt lat="47.09645" lon="6.08232">
        <ele>425.9</ele>
        <time>2012-03-29T13:00:20Z</time>
      </trkpt>
      <trkpt lat="47.09642" lon="6.08255">
        <ele>468.6</ele>
        <time>2012-03-29T13:00:21Z</time>
      </trkpt>
      <trkpt lat="47.09645" lon="6.08264">
        <ele>470.3</ele>
        <time>2012-03-29T13:00:23Z</time>
      </trkpt>
      <trkpt lat="47.09641" lon="6.08275">
        <ele>470.1</ele>
        <time>2012-03-29T13:00:27Z</time>
      </trkpt>
      <trkpt lat="47.09639" lon="6.08285">
        <ele>471.9</ele>
        <time>2012-03-29T13:00:35Z</time>
      </trkpt>
      <trkpt lat="47.09637" lon="6.08295">
        <ele>475.5</ele>
        <time>2012-03-29T13:00:39Z</time>
      </trkpt>
      <trkpt lat="47.09637" lon="6.08304">
        <ele>479.1</ele>
        <time>2012-03-29T13:00:44Z</time>
      </trkpt>
      <trkpt lat="47.09635" lon="6.08313">
        <ele>480.7</ele>
        <time>2012-03-29T13:00:49Z</time>
      </trkpt>
      <trkpt lat="47.09641" lon="6.08316">
        <ele>482.2</ele>
        <time>2012-03-29T13:00:54Z</time>
      </trkpt>
      <trkpt lat="47.09641" lon="6.08316">
        <ele>439.7</ele>
        <time>2012-03-29T13:01:06Z</time>
      </trkpt>
      <trkpt lat="47.09641" lon="6.08316">
        <ele>439.7</ele>
        <time>2012-03-29T13:01:07Z</time>
      </trkpt>
      <trkpt lat="47.09646" lon="6.08336">
        <ele>490</ele>
        <time>2012-03-29T13:01:12Z</time>
      </trkpt>
      <trkpt lat="47.0965" lon="6.08345">
        <ele>491.7</ele>
        <time>2012-03-29T13:01:18Z</time>
      </trkpt>
      <trkpt lat="47.09653" lon="6.08355">
        <ele>494.9</ele>
        <time>2012-03-29T13:01:25Z</time>
      </trkpt>
      <trkpt lat="47.09659" lon="6.08358">
        <ele>496.9</ele>
        <time>2012-03-29T13:01:33Z</time>
      </trkpt>
      <trkpt lat="47.09657" lon="6.08367">
        <ele>497.6</ele>
        <time>2012-03-29T13:01:44Z</time>
      </trkpt>
      <trkpt lat="47.09664" lon="6.08371">
        <ele>499.4</ele>
        <time>2012-03-29T13:01:46Z</time>
      </trkpt>
      <trkpt lat="47.09664" lon="6.08371">
        <ele>441.7</ele>
        <time>2012-03-29T13:01:58Z</time>
      </trkpt>
      <trkpt lat="47.09664" lon="6.08371">
        <ele>441.7</ele>
        <time>2012-03-29T13:02:00Z</time>
      </trkpt>
      <trkpt lat="47.09666" lon="6.08385">
        <ele>502.3</ele>
        <time>2012-03-29T13:02:09Z</time>
      </trkpt>
      <trkpt lat="47.09662" lon="6.08393">
        <ele>505.6</ele>
        <time>2012-03-29T13:02:14Z</time>
      </trkpt>
      <trkpt lat="47.09668" lon="6.08401">
        <ele>505.7</ele>
        <time>2012-03-29T13:02:22Z</time>
      </trkpt>
      <trkpt lat="47.09675" lon="6.08402">
        <ele>505.7</ele>
        <time>2012-03-29T13:02:27Z</time>
      </trkpt>
      <trkpt lat="47.09677" lon="6.08411">
        <ele>506.1</ele>
        <time>2012-03-29T13:02:32Z</time>
      </trkpt>
      <trkpt lat="47.09674" lon="6.08419">
        <ele>507.2</ele>
        <time>2012-03-29T13:02:39Z</time>
      </trkpt>
      <trkpt lat="47.09674" lon="6.08419">
        <ele>449.7</ele>
        <time>2012-03-29T13:02:50Z</time>
      </trkpt>
      <trkpt lat="47.09674" lon="6.08419">
        <ele>449.7</ele>
        <time>2012-03-29T13:02:56Z</time>
      </trkpt>
      <trkpt lat="47.09674" lon="6.08419">
        <ele>449.7</ele>
        <time>2012-03-29T13:03:07Z</time>
      </trkpt>
      <trkpt lat="47.09674" lon="6.08419">
        <ele>449.7</ele>
        <time>2012-03-29T13:08:26Z</time>
      </trkpt>
      <trkpt lat="47.09662" lon="6.08427">
        <ele>511.7</ele>
        <time>2012-03-29T13:08:33Z</time>
      </trkpt>
      <trkpt lat="47.09662" lon="6.08427">
        <ele>457</ele>
        <time>2012-03-29T13:08:45Z</time>
      </trkpt>
      <trkpt lat="47.09662" lon="6.08427">
        <ele>457</ele>
        <time>2012-03-29T13:08:59Z</time>
      </trkpt>
      <trkpt lat="47.09649" lon="6.08415">
        <ele>513.1</ele>
        <time>2012-03-29T13:09:01Z</time>
      </trkpt>
      <trkpt lat="47.09639" lon="6.0841">
        <ele>511.9</ele>
        <time>2012-03-29T13:09:05Z</time>
      </trkpt>
      <trkpt lat="47.09633" lon="6.08408">
        <ele>510.5</ele>
        <time>2012-03-29T13:09:06Z</time>
      </trkpt>
      <trkpt lat="47.09625" lon="6.08405">
        <ele>513.1</ele>
        <time>2012-03-29T13:09:11Z</time>
      </trkpt>
      <trkpt lat="47.09624" lon="6.08395">
        <ele>511.1</ele>
        <time>2012-03-29T13:09:20Z</time>
      </trkpt>
      <trkpt lat="47.09618" lon="6.0839">
        <ele>510.6</ele>
        <time>2012-03-29T13:09:25Z</time>
      </trkpt>
      <trkpt lat="47.09612" lon="6.08385">
        <ele>509.9</ele>
        <time>2012-03-29T13:09:30Z</time>
      </trkpt>
      <trkpt lat="47.09607" lon="6.08378">
        <ele>511.8</ele>
        <time>2012-03-29T13:09:41Z</time>
      </trkpt>
      <trkpt lat="47.09602" lon="6.08371">
        <ele>514.1</ele>
        <time>2012-03-29T13:09:48Z</time>
      </trkpt>
      <trkpt lat="47.09602" lon="6.08371">
        <ele>473.9</ele>
        <time>2012-03-29T13:10:00Z</time>
      </trkpt>
      <trkpt lat="47.09602" lon="6.08371">
        <ele>473.9</ele>
        <time>2012-03-29T13:10:04Z</time>
      </trkpt>
      <trkpt lat="47.09602" lon="6.08371">
        <ele>473.9</ele>
        <time>2012-03-29T13:10:15Z</time>
      </trkpt>
      <trkpt lat="47.09602" lon="6.08371">
        <ele>473.9</ele>
        <time>2012-03-29T13:10:16Z</time>
      </trkpt>
      <trkpt lat="47.09602" lon="6.08371">
        <ele>473.9</ele>
        <time>2012-03-29T13:10:28Z</time>
      </trkpt>
      <trkpt lat="47.09602" lon="6.08371">
        <ele>473.9</ele>
        <time>2012-03-29T13:10:45Z</time>
      </trkpt>
      <trkpt lat="47.09581" lon="6.08342">
        <ele>522.9</ele>
        <time>2012-03-29T13:10:48Z</time>
      </trkpt>
      <trkpt lat="47.09581" lon="6.08342">
        <ele>477.5</ele>
        <time>2012-03-29T13:11:00Z</time>
      </trkpt>
      <trkpt lat="47.09581" lon="6.08342">
        <ele>477.5</ele>
        <time>2012-03-29T13:11:44Z</time>
      </trkpt>
      <trkpt lat="47.09571" lon="6.08325">
        <ele>525.8</ele>
        <time>2012-03-29T13:11:47Z</time>
      </trkpt>
      <trkpt lat="47.09575" lon="6.08317">
        <ele>527.4</ele>
        <time>2012-03-29T13:11:53Z</time>
      </trkpt>
      <trkpt lat="47.09575" lon="6.08317">
        <ele>473.4</ele>
        <time>2012-03-29T13:12:05Z</time>
      </trkpt>
      <trkpt lat="47.09575" lon="6.08317">
        <ele>473.4</ele>
        <time>2012-03-29T13:12:13Z</time>
      </trkpt>
      <trkpt lat="47.09562" lon="6.08326">
        <ele>532.2</ele>
        <time>2012-03-29T13:12:20Z</time>
      </trkpt>
      <trkpt lat="47.09565" lon="6.08335">
        <ele>533.9</ele>
        <time>2012-03-29T13:12:30Z</time>
      </trkpt>
      <trkpt lat="47.0957" lon="6.08331">
        <ele>534.6</ele>
        <time>2012-03-29T13:12:34Z</time>
      </trkpt>
      <trkpt lat="47.0957" lon="6.08331">
        <ele>478.3</ele>
        <time>2012-03-29T13:12:46Z</time>
      </trkpt>
      <trkpt lat="47.0957" lon="6.08331">
        <ele>478.3</ele>
        <time>2012-03-29T13:13:15Z</time>
      </trkpt>
      <trkpt lat="47.09555" lon="6.0833">
        <ele>538.4</ele>
        <time>2012-03-29T13:13:20Z</time>
      </trkpt>
      <trkpt lat="47.09549" lon="6.08328">
        <ele>539.8</ele>
        <time>2012-03-29T13:13:26Z</time>
      </trkpt>
      <trkpt lat="47.09549" lon="6.08328">
        <ele>479.7</ele>
        <time>2012-03-29T13:13:38Z</time>
      </trkpt>
      <trkpt lat="47.09549" lon="6.08328">
        <ele>479.7</ele>
        <time>2012-03-29T13:14:51Z</time>
      </trkpt>
      <trkpt lat="47.09549" lon="6.08328">
        <ele>479.7</ele>
        <time>2012-03-29T13:15:02Z</time>
      </trkpt>
      <trkpt lat="47.09549" lon="6.08328">
        <ele>479.7</ele>
        <time>2012-03-29T13:22:00Z</time>
      </trkpt>
      <trkpt lat="47.09549" lon="6.08328">
        <ele>479.7</ele>
        <time>2012-03-29T13:22:12Z</time>
      </trkpt>
      <trkpt lat="47.09549" lon="6.08328">
        <ele>479.7</ele>
        <time>2012-03-29T13:36:51Z</time>
      </trkpt>
      <trkpt lat="47.09561" lon="6.08348">
        <ele>531</ele>
        <time>2012-03-29T13:36:55Z</time>
      </trkpt>
      <trkpt lat="47.09562" lon="6.08357">
        <ele>528.4</ele>
        <time>2012-03-29T13:37:04Z</time>
      </trkpt>
      <trkpt lat="47.09564" lon="6.08367">
        <ele>529.7</ele>
        <time>2012-03-29T13:37:15Z</time>
      </trkpt>
      <trkpt lat="47.09562" lon="6.08379">
        <ele>529.2</ele>
        <time>2012-03-29T13:37:21Z</time>
      </trkpt>
      <trkpt lat="47.09562" lon="6.08379">
        <ele>487.8</ele>
        <time>2012-03-29T13:37:33Z</time>
      </trkpt>
      <trkpt lat="47.09562" lon="6.08379">
        <ele>487.8</ele>
        <time>2012-03-29T13:37:57Z</time>
      </trkpt>
      <trkpt lat="47.09566" lon="6.08397">
        <ele>534</ele>
        <time>2012-03-29T13:38:04Z</time>
      </trkpt>
      <trkpt lat="47.09569" lon="6.08407">
        <ele>536.1</ele>
        <time>2012-03-29T13:38:09Z</time>
      </trkpt>
      <trkpt lat="47.09569" lon="6.08407">
        <ele>489.4</ele>
        <time>2012-03-29T13:38:20Z</time>
      </trkpt>
      <trkpt lat="47.09569" lon="6.08407">
        <ele>489.4</ele>
        <time>2012-03-29T13:38:22Z</time>
      </trkpt>
      <trkpt lat="47.09569" lon="6.08407">
        <ele>489.4</ele>
        <time>2012-03-29T13:38:34Z</time>
      </trkpt>
      <trkpt lat="47.09569" lon="6.08407">
        <ele>489.4</ele>
        <time>2012-03-29T13:39:01Z</time>
      </trkpt>
      <trkpt lat="47.09569" lon="6.08407">
        <ele>489.4</ele>
        <time>2012-03-29T13:39:13Z</time>
      </trkpt>
      <trkpt lat="47.09569" lon="6.08407">
        <ele>489.4</ele>
        <time>2012-03-29T13:39:46Z</time>
      </trkpt>
      <trkpt lat="47.09554" lon="6.08428">
        <ele>537.9</ele>
        <time>2012-03-29T13:39:52Z</time>
      </trkpt>
      <trkpt lat="47.09554" lon="6.08428">
        <ele>491.6</ele>
        <time>2012-03-29T13:40:04Z</time>
      </trkpt>
      <trkpt lat="47.09554" lon="6.08428">
        <ele>491.6</ele>
        <time>2012-03-29T13:41:13Z</time>
      </trkpt>
      <trkpt lat="47.09547" lon="6.08443">
        <ele>540.6</ele>
        <time>2012-03-29T13:41:19Z</time>
      </trkpt>
      <trkpt lat="47.09545" lon="6.08454">
        <ele>539.7</ele>
        <time>2012-03-29T13:41:24Z</time>
      </trkpt>
      <trkpt lat="47.09545" lon="6.08454">
        <ele>488.8</ele>
        <time>2012-03-29T13:41:36Z</time>
      </trkpt>
      <trkpt lat="47.09545" lon="6.08454">
        <ele>488.8</ele>
        <time>2012-03-29T13:42:06Z</time>
      </trkpt>
      <trkpt lat="47.09545" lon="6.08454">
        <ele>488.8</ele>
        <time>2012-03-29T13:42:17Z</time>
      </trkpt>
      <trkpt lat="47.09545" lon="6.08454">
        <ele>488.8</ele>
        <time>2012-03-29T13:43:14Z</time>
      </trkpt>
      <trkpt lat="47.0956" lon="6.08442">
        <ele>544.6</ele>
        <time>2012-03-29T13:43:17Z</time>
      </trkpt>
      <trkpt lat="47.09559" lon="6.08432">
        <ele>545.5</ele>
        <time>2012-03-29T13:43:21Z</time>
      </trkpt>
      <trkpt lat="47.09559" lon="6.08432">
        <ele>492.7</ele>
        <time>2012-03-29T13:43:33Z</time>
      </trkpt>
      <trkpt lat="47.09559" lon="6.08432">
        <ele>492.7</ele>
        <time>2012-03-29T13:44:25Z</time>
      </trkpt>
      <trkpt lat="47.09559" lon="6.08432">
        <ele>492.7</ele>
        <time>2012-03-29T13:44:36Z</time>
      </trkpt>
      <trkpt lat="47.09559" lon="6.08432">
        <ele>492.7</ele>
        <time>2012-03-29T13:44:45Z</time>
      </trkpt>
      <trkpt lat="47.09559" lon="6.08432">
        <ele>492.7</ele>
        <time>2012-03-29T13:44:57Z</time>
      </trkpt>
      <trkpt lat="47.09559" lon="6.08432">
        <ele>492.7</ele>
        <time>2012-03-29T13:46:42Z</time>
      </trkpt>
      <trkpt lat="47.09564" lon="6.08454">
        <ele>544.8</ele>
        <time>2012-03-29T13:46:46Z</time>
      </trkpt>
      <trkpt lat="47.09565" lon="6.08465">
        <ele>545.8</ele>
        <time>2012-03-29T13:46:53Z</time>
      </trkpt>
      <trkpt lat="47.09565" lon="6.08465">
        <ele>494.8</ele>
        <time>2012-03-29T13:47:06Z</time>
      </trkpt>
      <trkpt lat="47.09565" lon="6.08465">
        <ele>494.8</ele>
        <time>2012-03-29T13:47:11Z</time>
      </trkpt>
      <trkpt lat="47.09563" lon="6.08483">
        <ele>543.4</ele>
        <time>2012-03-29T13:47:19Z</time>
      </trkpt>
      <trkpt lat="47.09563" lon="6.08493">
        <ele>542.6</ele>
        <time>2012-03-29T13:47:28Z</time>
      </trkpt>
      <trkpt lat="47.09568" lon="6.085">
        <ele>545.3</ele>
        <time>2012-03-29T13:47:37Z</time>
      </trkpt>
      <trkpt lat="47.09568" lon="6.085">
        <ele>496.5</ele>
        <time>2012-03-29T13:47:49Z</time>
      </trkpt>
      <trkpt lat="47.09568" lon="6.085">
        <ele>496.5</ele>
        <time>2012-03-29T13:48:12Z</time>
      </trkpt>
      <trkpt lat="47.09573" lon="6.08518">
        <ele>544.3</ele>
        <time>2012-03-29T13:48:15Z</time>
      </trkpt>
      <trkpt lat="47.09575" lon="6.08528">
        <ele>544.3</ele>
        <time>2012-03-29T13:48:21Z</time>
      </trkpt>
      <trkpt lat="47.09572" lon="6.08539">
        <ele>543.7</ele>
        <time>2012-03-29T13:48:25Z</time>
      </trkpt>
      <trkpt lat="47.09571" lon="6.08551">
        <ele>542.8</ele>
        <time>2012-03-29T13:48:31Z</time>
      </trkpt>
      <trkpt lat="47.09573" lon="6.0856">
        <ele>542.9</ele>
        <time>2012-03-29T13:48:35Z</time>
      </trkpt>
      <trkpt lat="47.09573" lon="6.08571">
        <ele>543.5</ele>
        <time>2012-03-29T13:48:44Z</time>
      </trkpt>
      <trkpt lat="47.09574" lon="6.0858">
        <ele>545</ele>
        <time>2012-03-29T13:48:52Z</time>
      </trkpt>
      <trkpt lat="47.09573" lon="6.0859">
        <ele>545.8</ele>
        <time>2012-03-29T13:48:59Z</time>
      </trkpt>
      <trkpt lat="47.09573" lon="6.0859">
        <ele>502</ele>
        <time>2012-03-29T13:49:12Z</time>
      </trkpt>
      <trkpt lat="47.09573" lon="6.0859">
        <ele>502</ele>
        <time>2012-03-29T13:54:20Z</time>
      </trkpt>
      <trkpt lat="47.09577" lon="6.08609">
        <ele>543.7</ele>
        <time>2012-03-29T13:54:22Z</time>
      </trkpt>
      <trkpt lat="47.09577" lon="6.0862">
        <ele>545.6</ele>
        <time>2012-03-29T13:54:27Z</time>
      </trkpt>
      <trkpt lat="47.09574" lon="6.08629">
        <ele>544.8</ele>
        <time>2012-03-29T13:54:31Z</time>
      </trkpt>
      <trkpt lat="47.09577" lon="6.08637">
        <ele>544.7</ele>
        <time>2012-03-29T13:54:38Z</time>
      </trkpt>
      <trkpt lat="47.09577" lon="6.08648">
        <ele>543.7</ele>
        <time>2012-03-29T13:54:43Z</time>
      </trkpt>
      <trkpt lat="47.09577" lon="6.08661">
        <ele>542.9</ele>
        <time>2012-03-29T13:54:47Z</time>
      </trkpt>
      <trkpt lat="47.09578" lon="6.08671">
        <ele>543.6</ele>
        <time>2012-03-29T13:54:53Z</time>
      </trkpt>
      <trkpt lat="47.0958" lon="6.0868">
        <ele>546.4</ele>
        <time>2012-03-29T13:54:57Z</time>
      </trkpt>
      <trkpt lat="47.0958" lon="6.0868">
        <ele>503.9</ele>
        <time>2012-03-29T13:55:09Z</time>
      </trkpt>
      <trkpt lat="47.0958" lon="6.0868">
        <ele>503.9</ele>
        <time>2012-03-29T13:55:54Z</time>
      </trkpt>
      <trkpt lat="47.09581" lon="6.087">
        <ele>548.2</ele>
        <time>2012-03-29T13:55:57Z</time>
      </trkpt>
      <trkpt lat="47.09579" lon="6.08709">
        <ele>548.8</ele>
        <time>2012-03-29T13:55:59Z</time>
      </trkpt>
      <trkpt lat="47.09577" lon="6.08719">
        <ele>549.7</ele>
        <time>2012-03-29T13:56:02Z</time>
      </trkpt>
      <trkpt lat="47.0958" lon="6.08731">
        <ele>548.8</ele>
        <time>2012-03-29T13:56:06Z</time>
      </trkpt>
      <trkpt lat="47.0958" lon="6.0874">
        <ele>548.5</ele>
        <time>2012-03-29T13:56:09Z</time>
      </trkpt>
      <trkpt lat="47.09581" lon="6.0875">
        <ele>549.4</ele>
        <time>2012-03-29T13:56:15Z</time>
      </trkpt>
      <trkpt lat="47.09578" lon="6.0876">
        <ele>551.4</ele>
        <time>2012-03-29T13:56:21Z</time>
      </trkpt>
      <trkpt lat="47.09576" lon="6.08769">
        <ele>552.6</ele>
        <time>2012-03-29T13:56:24Z</time>
      </trkpt>
      <trkpt lat="47.09579" lon="6.08781">
        <ele>553.6</ele>
        <time>2012-03-29T13:56:30Z</time>
      </trkpt>
      <trkpt lat="47.0958" lon="6.08793">
        <ele>553.3</ele>
        <time>2012-03-29T13:56:35Z</time>
      </trkpt>
      <trkpt lat="47.09576" lon="6.08802">
        <ele>552.2</ele>
        <time>2012-03-29T13:56:41Z</time>
      </trkpt>
      <trkpt lat="47.09578" lon="6.08813">
        <ele>551.3</ele>
        <time>2012-03-29T13:56:47Z</time>
      </trkpt>
      <trkpt lat="47.09577" lon="6.08823">
        <ele>552.3</ele>
        <time>2012-03-29T13:56:52Z</time>
      </trkpt>
      <trkpt lat="47.09577" lon="6.08833">
        <ele>551.5</ele>
        <time>2012-03-29T13:56:57Z</time>
      </trkpt>
      <trkpt lat="47.09578" lon="6.08842">
        <ele>550.9</ele>
        <time>2012-03-29T13:57:02Z</time>
      </trkpt>
      <trkpt lat="47.09582" lon="6.08851">
        <ele>552.5</ele>
        <time>2012-03-29T13:57:08Z</time>
      </trkpt>
      <trkpt lat="47.09579" lon="6.08862">
        <ele>551.8</ele>
        <time>2012-03-29T13:57:16Z</time>
      </trkpt>
      <trkpt lat="47.09578" lon="6.08871">
        <ele>550.2</ele>
        <time>2012-03-29T13:57:21Z</time>
      </trkpt>
      <trkpt lat="47.09578" lon="6.08871">
        <ele>500.6</ele>
        <time>2012-03-29T13:57:33Z</time>
      </trkpt>
      <trkpt lat="47.09578" lon="6.08871">
        <ele>500.6</ele>
        <time>2012-03-29T13:57:40Z</time>
      </trkpt>
      <trkpt lat="47.09573" lon="6.08891">
        <ele>550.5</ele>
        <time>2012-03-29T13:57:43Z</time>
      </trkpt>
      <trkpt lat="47.0957" lon="6.08902">
        <ele>550.7</ele>
        <time>2012-03-29T13:57:47Z</time>
      </trkpt>
      <trkpt lat="47.09572" lon="6.08911">
        <ele>550.1</ele>
        <time>2012-03-29T13:57:52Z</time>
      </trkpt>
      <trkpt lat="47.09572" lon="6.08911">
        <ele>500.2</ele>
        <time>2012-03-29T13:58:04Z</time>
      </trkpt>
      <trkpt lat="47.09572" lon="6.08911">
        <ele>500.2</ele>
        <time>2012-03-29T13:58:12Z</time>
      </trkpt>
      <trkpt lat="47.09567" lon="6.0893">
        <ele>551.5</ele>
        <time>2012-03-29T13:58:18Z</time>
      </trkpt>
      <trkpt lat="47.09566" lon="6.08942">
        <ele>551.4</ele>
        <time>2012-03-29T13:58:25Z</time>
      </trkpt>
      <trkpt lat="47.09563" lon="6.08955">
        <ele>550.5</ele>
        <time>2012-03-29T13:58:27Z</time>
      </trkpt>
      <trkpt lat="47.09562" lon="6.08966">
        <ele>552.5</ele>
        <time>2012-03-29T13:58:30Z</time>
      </trkpt>
      <trkpt lat="47.09561" lon="6.08977">
        <ele>553.3</ele>
        <time>2012-03-29T13:58:33Z</time>
      </trkpt>
      <trkpt lat="47.09559" lon="6.08987">
        <ele>553.1</ele>
        <time>2012-03-29T13:58:36Z</time>
      </trkpt>
      <trkpt lat="47.09559" lon="6.08999">
        <ele>550.4</ele>
        <time>2012-03-29T13:58:39Z</time>
      </trkpt>
      <trkpt lat="47.09558" lon="6.09008">
        <ele>550.4</ele>
        <time>2012-03-29T13:58:44Z</time>
      </trkpt>
      <trkpt lat="47.09555" lon="6.09018">
        <ele>548.7</ele>
        <time>2012-03-29T13:58:50Z</time>
      </trkpt>
      <trkpt lat="47.09552" lon="6.09027">
        <ele>550.6</ele>
        <time>2012-03-29T13:59:01Z</time>
      </trkpt>
      <trkpt lat="47.09552" lon="6.09027">
        <ele>500.1</ele>
        <time>2012-03-29T13:59:13Z</time>
      </trkpt>
      <trkpt lat="47.09552" lon="6.09027">
        <ele>500.1</ele>
        <time>2012-03-29T13:59:14Z</time>
      </trkpt>
      <trkpt lat="47.0955" lon="6.09047">
        <ele>552.3</ele>
        <time>2012-03-29T13:59:16Z</time>
      </trkpt>
      <trkpt lat="47.09547" lon="6.09056">
        <ele>553.8</ele>
        <time>2012-03-29T13:59:20Z</time>
      </trkpt>
      <trkpt lat="47.09545" lon="6.09066">
        <ele>553.7</ele>
        <time>2012-03-29T13:59:27Z</time>
      </trkpt>
      <trkpt lat="47.09547" lon="6.09078">
        <ele>551.2</ele>
        <time>2012-03-29T13:59:30Z</time>
      </trkpt>
      <trkpt lat="47.09545" lon="6.09088">
        <ele>552.8</ele>
        <time>2012-03-29T13:59:34Z</time>
      </trkpt>
      <trkpt lat="47.09544" lon="6.09097">
        <ele>554.7</ele>
        <time>2012-03-29T13:59:40Z</time>
      </trkpt>
      <trkpt lat="47.0954" lon="6.09106">
        <ele>554.1</ele>
        <time>2012-03-29T13:59:45Z</time>
      </trkpt>
      <trkpt lat="47.0954" lon="6.09106">
        <ele>501.3</ele>
        <time>2012-03-29T13:59:57Z</time>
      </trkpt>
      <trkpt lat="47.0954" lon="6.09106">
        <ele>501.3</ele>
        <time>2012-03-29T14:00:12Z</time>
      </trkpt>
      <trkpt lat="47.09534" lon="6.09127">
        <ele>553.3</ele>
        <time>2012-03-29T14:00:14Z</time>
      </trkpt>
      <trkpt lat="47.09529" lon="6.09138">
        <ele>551.7</ele>
        <time>2012-03-29T14:00:19Z</time>
      </trkpt>
      <trkpt lat="47.09526" lon="6.09146">
        <ele>553</ele>
        <time>2012-03-29T14:00:23Z</time>
      </trkpt>
      <trkpt lat="47.09526" lon="6.09146">
        <ele>502.1</ele>
        <time>2012-03-29T14:00:35Z</time>
      </trkpt>
      <trkpt lat="47.09526" lon="6.09146">
        <ele>502.1</ele>
        <time>2012-03-29T14:00:41Z</time>
      </trkpt>
      <trkpt lat="47.09516" lon="6.09164">
        <ele>552.2</ele>
        <time>2012-03-29T14:00:44Z</time>
      </trkpt>
      <trkpt lat="47.09511" lon="6.09172">
        <ele>552.5</ele>
        <time>2012-03-29T14:00:46Z</time>
      </trkpt>
      <trkpt lat="47.09508" lon="6.0918">
        <ele>551</ele>
        <time>2012-03-29T14:00:49Z</time>
      </trkpt>
      <trkpt lat="47.09505" lon="6.09189">
        <ele>553.5</ele>
        <time>2012-03-29T14:00:52Z</time>
      </trkpt>
      <trkpt lat="47.09502" lon="6.092">
        <ele>554.2</ele>
        <time>2012-03-29T14:00:56Z</time>
      </trkpt>
      <trkpt lat="47.09495" lon="6.09205">
        <ele>556.5</ele>
        <time>2012-03-29T14:01:00Z</time>
      </trkpt>
      <trkpt lat="47.09491" lon="6.09213">
        <ele>558.7</ele>
        <time>2012-03-29T14:01:05Z</time>
      </trkpt>
      <trkpt lat="47.09484" lon="6.09217">
        <ele>557.7</ele>
        <time>2012-03-29T14:01:10Z</time>
      </trkpt>
      <trkpt lat="47.09479" lon="6.09223">
        <ele>559.9</ele>
        <time>2012-03-29T14:01:18Z</time>
      </trkpt>
      <trkpt lat="47.09474" lon="6.0923">
        <ele>560.8</ele>
        <time>2012-03-29T14:01:23Z</time>
      </trkpt>
      <trkpt lat="47.09472" lon="6.0924">
        <ele>560.8</ele>
        <time>2012-03-29T14:01:28Z</time>
      </trkpt>
      <trkpt lat="47.09466" lon="6.09245">
        <ele>562.3</ele>
        <time>2012-03-29T14:01:33Z</time>
      </trkpt>
      <trkpt lat="47.0946" lon="6.09252">
        <ele>561.3</ele>
        <time>2012-03-29T14:01:39Z</time>
      </trkpt>
      <trkpt lat="47.09456" lon="6.09261">
        <ele>562.4</ele>
        <time>2012-03-29T14:01:46Z</time>
      </trkpt>
      <trkpt lat="47.09449" lon="6.09264">
        <ele>561.1</ele>
        <time>2012-03-29T14:01:54Z</time>
      </trkpt>
      <trkpt lat="47.09444" lon="6.09273">
        <ele>561.3</ele>
        <time>2012-03-29T14:01:59Z</time>
      </trkpt>
      <trkpt lat="47.09438" lon="6.09279">
        <ele>561.3</ele>
        <time>2012-03-29T14:02:04Z</time>
      </trkpt>
      <trkpt lat="47.09434" lon="6.09286">
        <ele>559.7</ele>
        <time>2012-03-29T14:02:09Z</time>
      </trkpt>
      <trkpt lat="47.09429" lon="6.09292">
        <ele>561.1</ele>
        <time>2012-03-29T14:02:16Z</time>
      </trkpt>
      <trkpt lat="47.09422" lon="6.09299">
        <ele>560.5</ele>
        <time>2012-03-29T14:02:21Z</time>
      </trkpt>
      <trkpt lat="47.0942" lon="6.09308">
        <ele>560</ele>
        <time>2012-03-29T14:02:27Z</time>
      </trkpt>
      <trkpt lat="47.09415" lon="6.09318">
        <ele>561.1</ele>
        <time>2012-03-29T14:02:35Z</time>
      </trkpt>
      <trkpt lat="47.09413" lon="6.0933">
        <ele>561.5</ele>
        <time>2012-03-29T14:02:40Z</time>
      </trkpt>
      <trkpt lat="47.09408" lon="6.09338">
        <ele>560.9</ele>
        <time>2012-03-29T14:02:45Z</time>
      </trkpt>
      <trkpt lat="47.09404" lon="6.09345">
        <ele>563.8</ele>
        <time>2012-03-29T14:02:50Z</time>
      </trkpt>
      <trkpt lat="47.09398" lon="6.09341">
        <ele>564.1</ele>
        <time>2012-03-29T14:02:57Z</time>
      </trkpt>
      <trkpt lat="47.09398" lon="6.09341">
        <ele>501.6</ele>
        <time>2012-03-29T14:03:09Z</time>
      </trkpt>
      <trkpt lat="47.09398" lon="6.09341">
        <ele>501.6</ele>
        <time>2012-03-29T14:03:46Z</time>
      </trkpt>
      <trkpt lat="47.09385" lon="6.09327">
        <ele>563.4</ele>
        <time>2012-03-29T14:03:52Z</time>
      </trkpt>
      <trkpt lat="47.09385" lon="6.09327">
        <ele>496.7</ele>
        <time>2012-03-29T14:04:04Z</time>
      </trkpt>
      <trkpt lat="47.09385" lon="6.09327">
        <ele>496.7</ele>
        <time>2012-03-29T14:18:32Z</time>
      </trkpt>
      <trkpt lat="47.09401" lon="6.09319">
        <ele>552.5</ele>
        <time>2012-03-29T14:18:35Z</time>
      </trkpt>
      <trkpt lat="47.09407" lon="6.09312">
        <ele>553.3</ele>
        <time>2012-03-29T14:18:43Z</time>
      </trkpt>
      <trkpt lat="47.09411" lon="6.09304">
        <ele>553.9</ele>
        <time>2012-03-29T14:18:52Z</time>
      </trkpt>
      <trkpt lat="47.09417" lon="6.09299">
        <ele>553.3</ele>
        <time>2012-03-29T14:18:59Z</time>
      </trkpt>
      <trkpt lat="47.09423" lon="6.09294">
        <ele>551.8</ele>
        <time>2012-03-29T14:19:06Z</time>
      </trkpt>
      <trkpt lat="47.09425" lon="6.09285">
        <ele>551.5</ele>
        <time>2012-03-29T14:19:15Z</time>
      </trkpt>
      <trkpt lat="47.09428" lon="6.09276">
        <ele>551.9</ele>
        <time>2012-03-29T14:19:22Z</time>
      </trkpt>
      <trkpt lat="47.09433" lon="6.09269">
        <ele>549.6</ele>
        <time>2012-03-29T14:19:30Z</time>
      </trkpt>
      <trkpt lat="47.09437" lon="6.09261">
        <ele>547.8</ele>
        <time>2012-03-29T14:19:39Z</time>
      </trkpt>
      <trkpt lat="47.09441" lon="6.09254">
        <ele>547.5</ele>
        <time>2012-03-29T14:19:48Z</time>
      </trkpt>
      <trkpt lat="47.09443" lon="6.09244">
        <ele>545.7</ele>
        <time>2012-03-29T14:19:53Z</time>
      </trkpt>
      <trkpt lat="47.09445" lon="6.09235">
        <ele>544.3</ele>
        <time>2012-03-29T14:19:59Z</time>
      </trkpt>
      <trkpt lat="47.0945" lon="6.09229">
        <ele>544.2</ele>
        <time>2012-03-29T14:20:06Z</time>
      </trkpt>
      <trkpt lat="47.09454" lon="6.09221">
        <ele>546.5</ele>
        <time>2012-03-29T14:20:11Z</time>
      </trkpt>
      <trkpt lat="47.09457" lon="6.0921">
        <ele>545.7</ele>
        <time>2012-03-29T14:20:17Z</time>
      </trkpt>
      <trkpt lat="47.09462" lon="6.09204">
        <ele>544.7</ele>
        <time>2012-03-29T14:20:24Z</time>
      </trkpt>
      <trkpt lat="47.09467" lon="6.09197">
        <ele>541.8</ele>
        <time>2012-03-29T14:20:34Z</time>
      </trkpt>
      <trkpt lat="47.09465" lon="6.09185">
        <ele>543.5</ele>
        <time>2012-03-29T14:20:38Z</time>
      </trkpt>
      <trkpt lat="47.09466" lon="6.09174">
        <ele>544.5</ele>
        <time>2012-03-29T14:20:45Z</time>
      </trkpt>
      <trkpt lat="47.09472" lon="6.0917">
        <ele>543.1</ele>
        <time>2012-03-29T14:20:53Z</time>
      </trkpt>
      <trkpt lat="47.09474" lon="6.0916">
        <ele>541.9</ele>
        <time>2012-03-29T14:21:02Z</time>
      </trkpt>
      <trkpt lat="47.09476" lon="6.09152">
        <ele>542</ele>
        <time>2012-03-29T14:21:10Z</time>
      </trkpt>
      <trkpt lat="47.09478" lon="6.09141">
        <ele>540.8</ele>
        <time>2012-03-29T14:21:18Z</time>
      </trkpt>
      <trkpt lat="47.0948" lon="6.09132">
        <ele>541</ele>
        <time>2012-03-29T14:21:23Z</time>
      </trkpt>
      <trkpt lat="47.09484" lon="6.09123">
        <ele>538.6</ele>
        <time>2012-03-29T14:21:30Z</time>
      </trkpt>
      <trkpt lat="47.09485" lon="6.09114">
        <ele>538.6</ele>
        <time>2012-03-29T14:21:37Z</time>
      </trkpt>
      <trkpt lat="47.09485" lon="6.09103">
        <ele>538.8</ele>
        <time>2012-03-29T14:21:42Z</time>
      </trkpt>
      <trkpt lat="47.09487" lon="6.09094">
        <ele>538.4</ele>
        <time>2012-03-29T14:21:49Z</time>
      </trkpt>
      <trkpt lat="47.09492" lon="6.09087">
        <ele>537.4</ele>
        <time>2012-03-29T14:21:55Z</time>
      </trkpt>
      <trkpt lat="47.09494" lon="6.09076">
        <ele>536.7</ele>
        <time>2012-03-29T14:22:01Z</time>
      </trkpt>
      <trkpt lat="47.09493" lon="6.09066">
        <ele>535.3</ele>
        <time>2012-03-29T14:22:06Z</time>
      </trkpt>
      <trkpt lat="47.09495" lon="6.09056">
        <ele>535.3</ele>
        <time>2012-03-29T14:22:15Z</time>
      </trkpt>
      <trkpt lat="47.09494" lon="6.09046">
        <ele>535</ele>
        <time>2012-03-29T14:22:20Z</time>
      </trkpt>
      <trkpt lat="47.09494" lon="6.09046">
        <ele>485.7</ele>
        <time>2012-03-29T14:22:32Z</time>
      </trkpt>
      <trkpt lat="47.09494" lon="6.09046">
        <ele>485.7</ele>
        <time>2012-03-29T14:22:33Z</time>
      </trkpt>
      <trkpt lat="47.09499" lon="6.09025">
        <ele>535.7</ele>
        <time>2012-03-29T14:22:38Z</time>
      </trkpt>
      <trkpt lat="47.09499" lon="6.09025">
        <ele>485</ele>
        <time>2012-03-29T14:22:50Z</time>
      </trkpt>
      <trkpt lat="47.09499" lon="6.09025">
        <ele>485</ele>
        <time>2012-03-29T14:22:51Z</time>
      </trkpt>
      <trkpt lat="47.09497" lon="6.09001">
        <ele>536.9</ele>
        <time>2012-03-29T14:22:58Z</time>
      </trkpt>
      <trkpt lat="47.09494" lon="6.08991">
        <ele>536.7</ele>
        <time>2012-03-29T14:23:02Z</time>
      </trkpt>
      <trkpt lat="47.09496" lon="6.08981">
        <ele>533.4</ele>
        <time>2012-03-29T14:23:07Z</time>
      </trkpt>
      <trkpt lat="47.09497" lon="6.08971">
        <ele>534.3</ele>
        <time>2012-03-29T14:23:15Z</time>
      </trkpt>
      <trkpt lat="47.09496" lon="6.0896">
        <ele>534.4</ele>
        <time>2012-03-29T14:23:22Z</time>
      </trkpt>
      <trkpt lat="47.09496" lon="6.08949">
        <ele>534.1</ele>
        <time>2012-03-29T14:23:28Z</time>
      </trkpt>
      <trkpt lat="47.09496" lon="6.08939">
        <ele>532.1</ele>
        <time>2012-03-29T14:23:35Z</time>
      </trkpt>
      <trkpt lat="47.09498" lon="6.0893">
        <ele>532.6</ele>
        <time>2012-03-29T14:23:43Z</time>
      </trkpt>
      <trkpt lat="47.09503" lon="6.08924">
        <ele>535.5</ele>
        <time>2012-03-29T14:23:52Z</time>
      </trkpt>
      <trkpt lat="47.09501" lon="6.08915">
        <ele>535.9</ele>
        <time>2012-03-29T14:23:56Z</time>
      </trkpt>
      <trkpt lat="47.09499" lon="6.08906">
        <ele>535.1</ele>
        <time>2012-03-29T14:24:02Z</time>
      </trkpt>
      <trkpt lat="47.09498" lon="6.08896">
        <ele>532.3</ele>
        <time>2012-03-29T14:24:09Z</time>
      </trkpt>
      <trkpt lat="47.09502" lon="6.08888">
        <ele>533.1</ele>
        <time>2012-03-29T14:24:17Z</time>
      </trkpt>
      <trkpt lat="47.095" lon="6.08878">
        <ele>533.1</ele>
        <time>2012-03-29T14:24:22Z</time>
      </trkpt>
      <trkpt lat="47.09497" lon="6.08869">
        <ele>531.7</ele>
        <time>2012-03-29T14:24:29Z</time>
      </trkpt>
      <trkpt lat="47.09494" lon="6.0886">
        <ele>532.2</ele>
        <time>2012-03-29T14:24:35Z</time>
      </trkpt>
      <trkpt lat="47.09494" lon="6.0885">
        <ele>532.6</ele>
        <time>2012-03-29T14:24:41Z</time>
      </trkpt>
      <trkpt lat="47.09499" lon="6.08844">
        <ele>529.8</ele>
        <time>2012-03-29T14:24:49Z</time>
      </trkpt>
      <trkpt lat="47.09498" lon="6.08834">
        <ele>529.8</ele>
        <time>2012-03-29T14:24:56Z</time>
      </trkpt>
      <trkpt lat="47.09497" lon="6.08825">
        <ele>528.9</ele>
        <time>2012-03-29T14:25:06Z</time>
      </trkpt>
      <trkpt lat="47.09495" lon="6.08813">
        <ele>531.1</ele>
        <time>2012-03-29T14:25:15Z</time>
      </trkpt>
      <trkpt lat="47.09494" lon="6.08803">
        <ele>530.8</ele>
        <time>2012-03-29T14:25:23Z</time>
      </trkpt>
      <trkpt lat="47.09493" lon="6.08794">
        <ele>531.2</ele>
        <time>2012-03-29T14:25:27Z</time>
      </trkpt>
      <trkpt lat="47.0949" lon="6.08785">
        <ele>531.3</ele>
        <time>2012-03-29T14:25:34Z</time>
      </trkpt>
      <trkpt lat="47.09488" lon="6.08775">
        <ele>530.5</ele>
        <time>2012-03-29T14:25:44Z</time>
      </trkpt>
      <trkpt lat="47.09489" lon="6.08764">
        <ele>528.4</ele>
        <time>2012-03-29T14:25:48Z</time>
      </trkpt>
      <trkpt lat="47.09487" lon="6.08752">
        <ele>529</ele>
        <time>2012-03-29T14:25:55Z</time>
      </trkpt>
      <trkpt lat="47.09488" lon="6.08742">
        <ele>526.8</ele>
        <time>2012-03-29T14:26:01Z</time>
      </trkpt>
      <trkpt lat="47.09486" lon="6.08733">
        <ele>526.4</ele>
        <time>2012-03-29T14:26:10Z</time>
      </trkpt>
      <trkpt lat="47.09481" lon="6.08724">
        <ele>525.3</ele>
        <time>2012-03-29T14:26:14Z</time>
      </trkpt>
      <trkpt lat="47.09484" lon="6.08714">
        <ele>524</ele>
        <time>2012-03-29T14:26:25Z</time>
      </trkpt>
      <trkpt lat="47.09479" lon="6.08707">
        <ele>524.6</ele>
        <time>2012-03-29T14:26:30Z</time>
      </trkpt>
      <trkpt lat="47.09481" lon="6.08698">
        <ele>524.9</ele>
        <time>2012-03-29T14:26:37Z</time>
      </trkpt>
      <trkpt lat="47.09479" lon="6.08688">
        <ele>526.6</ele>
        <time>2012-03-29T14:26:46Z</time>
      </trkpt>
      <trkpt lat="47.09479" lon="6.08677">
        <ele>526.4</ele>
        <time>2012-03-29T14:26:54Z</time>
      </trkpt>
      <trkpt lat="47.09478" lon="6.08668">
        <ele>526.5</ele>
        <time>2012-03-29T14:27:00Z</time>
      </trkpt>
      <trkpt lat="47.0948" lon="6.08655">
        <ele>524.2</ele>
        <time>2012-03-29T14:27:07Z</time>
      </trkpt>
      <trkpt lat="47.09479" lon="6.08646">
        <ele>522.1</ele>
        <time>2012-03-29T14:27:12Z</time>
      </trkpt>
      <trkpt lat="47.09481" lon="6.08636">
        <ele>521.7</ele>
        <time>2012-03-29T14:27:17Z</time>
      </trkpt>
      <trkpt lat="47.09481" lon="6.08636">
        <ele>454.2</ele>
        <time>2012-03-29T14:27:29Z</time>
      </trkpt>
      <trkpt lat="47.09481" lon="6.08636">
        <ele>454.2</ele>
        <time>2012-03-29T14:27:30Z</time>
      </trkpt>
      <trkpt lat="47.09484" lon="6.08616">
        <ele>522.2</ele>
        <time>2012-03-29T14:27:38Z</time>
      </trkpt>
      <trkpt lat="47.0948" lon="6.08605">
        <ele>519.6</ele>
        <time>2012-03-29T14:27:43Z</time>
      </trkpt>
      <trkpt lat="47.0948" lon="6.08595">
        <ele>516.7</ele>
        <time>2012-03-29T14:27:46Z</time>
      </trkpt>
      <trkpt lat="47.0948" lon="6.08585">
        <ele>513.8</ele>
        <time>2012-03-29T14:27:52Z</time>
      </trkpt>
      <trkpt lat="47.09482" lon="6.08577">
        <ele>509.4</ele>
        <time>2012-03-29T14:28:00Z</time>
      </trkpt>
      <trkpt lat="47.09483" lon="6.08567">
        <ele>509</ele>
        <time>2012-03-29T14:28:04Z</time>
      </trkpt>
      <trkpt lat="47.09483" lon="6.08558">
        <ele>510.6</ele>
        <time>2012-03-29T14:28:15Z</time>
      </trkpt>
      <trkpt lat="47.09483" lon="6.08545">
        <ele>511.6</ele>
        <time>2012-03-29T14:28:24Z</time>
      </trkpt>
      <trkpt lat="47.0948" lon="6.08536">
        <ele>510.9</ele>
        <time>2012-03-29T14:28:29Z</time>
      </trkpt>
      <trkpt lat="47.09479" lon="6.08525">
        <ele>508</ele>
        <time>2012-03-29T14:28:37Z</time>
      </trkpt>
      <trkpt lat="47.0948" lon="6.08516">
        <ele>506.2</ele>
        <time>2012-03-29T14:28:41Z</time>
      </trkpt>
      <trkpt lat="47.0948" lon="6.08506">
        <ele>503.4</ele>
        <time>2012-03-29T14:28:48Z</time>
      </trkpt>
      <trkpt lat="47.09479" lon="6.08496">
        <ele>504.5</ele>
        <time>2012-03-29T14:28:57Z</time>
      </trkpt>
      <trkpt lat="47.09477" lon="6.08487">
        <ele>505</ele>
        <time>2012-03-29T14:29:04Z</time>
      </trkpt>
      <trkpt lat="47.09476" lon="6.08477">
        <ele>507.1</ele>
        <time>2012-03-29T14:29:09Z</time>
      </trkpt>
      <trkpt lat="47.09478" lon="6.08466">
        <ele>502.9</ele>
        <time>2012-03-29T14:29:19Z</time>
      </trkpt>
      <trkpt lat="47.09477" lon="6.08456">
        <ele>501.2</ele>
        <time>2012-03-29T14:29:26Z</time>
      </trkpt>
      <trkpt lat="47.09478" lon="6.08447">
        <ele>501.1</ele>
        <time>2012-03-29T14:29:32Z</time>
      </trkpt>
      <trkpt lat="47.09481" lon="6.08438">
        <ele>499.7</ele>
        <time>2012-03-29T14:29:41Z</time>
      </trkpt>
      <trkpt lat="47.0948" lon="6.08427">
        <ele>497.9</ele>
        <time>2012-03-29T14:29:47Z</time>
      </trkpt>
      <trkpt lat="47.09478" lon="6.08417">
        <ele>496.3</ele>
        <time>2012-03-29T14:29:56Z</time>
      </trkpt>
      <trkpt lat="47.09478" lon="6.08417">
        <ele>442.4</ele>
        <time>2012-03-29T14:30:08Z</time>
      </trkpt>
      <trkpt lat="47.09478" lon="6.08417">
        <ele>442.4</ele>
        <time>2012-03-29T14:30:30Z</time>
      </trkpt>
      <trkpt lat="47.0947" lon="6.08426">
        <ele>498.5</ele>
        <time>2012-03-29T14:30:35Z</time>
      </trkpt>
      <trkpt lat="47.0947" lon="6.08426">
        <ele>437.8</ele>
        <time>2012-03-29T14:30:46Z</time>
      </trkpt>
      <trkpt lat="47.0947" lon="6.08426">
        <ele>437.8</ele>
        <time>2012-03-29T14:31:04Z</time>
      </trkpt>
      <trkpt lat="47.09468" lon="6.08445">
        <ele>499.4</ele>
        <time>2012-03-29T14:31:11Z</time>
      </trkpt>
      <trkpt lat="47.09466" lon="6.08455">
        <ele>500.7</ele>
        <time>2012-03-29T14:31:15Z</time>
      </trkpt>
      <trkpt lat="47.09464" lon="6.08464">
        <ele>499.6</ele>
        <time>2012-03-29T14:31:23Z</time>
      </trkpt>
      <trkpt lat="47.09464" lon="6.08464">
        <ele>436</ele>
        <time>2012-03-29T14:31:35Z</time>
      </trkpt>
      <trkpt lat="47.09464" lon="6.08464">
        <ele>436</ele>
        <time>2012-03-29T14:31:49Z</time>
      </trkpt>
      <trkpt lat="47.0946" lon="6.08485">
        <ele>497.9</ele>
        <time>2012-03-29T14:31:51Z</time>
      </trkpt>
      <trkpt lat="47.09458" lon="6.08497">
        <ele>497.7</ele>
        <time>2012-03-29T14:31:55Z</time>
      </trkpt>
      <trkpt lat="47.09458" lon="6.08507">
        <ele>499</ele>
        <time>2012-03-29T14:32:01Z</time>
      </trkpt>
      <trkpt lat="47.09456" lon="6.08517">
        <ele>498.4</ele>
        <time>2012-03-29T14:32:07Z</time>
      </trkpt>
      <trkpt lat="47.09453" lon="6.08527">
        <ele>499</ele>
        <time>2012-03-29T14:32:16Z</time>
      </trkpt>
      <trkpt lat="47.09451" lon="6.08536">
        <ele>498.2</ele>
        <time>2012-03-29T14:32:22Z</time>
      </trkpt>
      <trkpt lat="47.09451" lon="6.08536">
        <ele>432.5</ele>
        <time>2012-03-29T14:32:34Z</time>
      </trkpt>
      <trkpt lat="47.09451" lon="6.08536">
        <ele>432.5</ele>
        <time>2012-03-29T14:33:13Z</time>
      </trkpt>
      <trkpt lat="47.09446" lon="6.08559">
        <ele>499</ele>
        <time>2012-03-29T14:33:16Z</time>
      </trkpt>
      <trkpt lat="47.09445" lon="6.0857">
        <ele>499.2</ele>
        <time>2012-03-29T14:33:20Z</time>
      </trkpt>
      <trkpt lat="47.09443" lon="6.08579">
        <ele>501</ele>
        <time>2012-03-29T14:33:25Z</time>
      </trkpt>
      <trkpt lat="47.09444" lon="6.08588">
        <ele>499.4</ele>
        <time>2012-03-29T14:33:32Z</time>
      </trkpt>
      <trkpt lat="47.09439" lon="6.08596">
        <ele>500.8</ele>
        <time>2012-03-29T14:33:36Z</time>
      </trkpt>
      <trkpt lat="47.0944" lon="6.08609">
        <ele>499.5</ele>
        <time>2012-03-29T14:33:42Z</time>
      </trkpt>
      <trkpt lat="47.09439" lon="6.08618">
        <ele>500.6</ele>
        <time>2012-03-29T14:33:49Z</time>
      </trkpt>
      <trkpt lat="47.09436" lon="6.08627">
        <ele>500.7</ele>
        <time>2012-03-29T14:33:53Z</time>
      </trkpt>
      <trkpt lat="47.09435" lon="6.08638">
        <ele>500.7</ele>
        <time>2012-03-29T14:33:58Z</time>
      </trkpt>
      <trkpt lat="47.09433" lon="6.08646">
        <ele>501.2</ele>
        <time>2012-03-29T14:34:03Z</time>
      </trkpt>
      <trkpt lat="47.09433" lon="6.08657">
        <ele>500</ele>
        <time>2012-03-29T14:34:11Z</time>
      </trkpt>
      <trkpt lat="47.09429" lon="6.08665">
        <ele>501.1</ele>
        <time>2012-03-29T14:34:20Z</time>
      </trkpt>
      <trkpt lat="47.09429" lon="6.08665">
        <ele>423.5</ele>
        <time>2012-03-29T14:34:32Z</time>
      </trkpt>
      <trkpt lat="47.09429" lon="6.08665">
        <ele>423.5</ele>
        <time>2012-03-29T14:35:30Z</time>
      </trkpt>
      <trkpt lat="47.09432" lon="6.08685">
        <ele>499.1</ele>
        <time>2012-03-29T14:35:32Z</time>
      </trkpt>
      <trkpt lat="47.09431" lon="6.08696">
        <ele>499.6</ele>
        <time>2012-03-29T14:35:37Z</time>
      </trkpt>
      <trkpt lat="47.0943" lon="6.08709">
        <ele>496.4</ele>
        <time>2012-03-29T14:35:42Z</time>
      </trkpt>
      <trkpt lat="47.09425" lon="6.08717">
        <ele>495.2</ele>
        <time>2012-03-29T14:35:49Z</time>
      </trkpt>
      <trkpt lat="47.09425" lon="6.08717">
        <ele>423.3</ele>
        <time>2012-03-29T14:36:00Z</time>
      </trkpt>
      <trkpt lat="47.09425" lon="6.08717">
        <ele>423.3</ele>
        <time>2012-03-29T14:36:14Z</time>
      </trkpt>
      <trkpt lat="47.09425" lon="6.08717">
        <ele>423.3</ele>
        <time>2012-03-29T14:36:26Z</time>
      </trkpt>
      <trkpt lat="47.09425" lon="6.08717">
        <ele>423.3</ele>
        <time>2012-03-29T14:36:28Z</time>
      </trkpt>
      <trkpt lat="47.09423" lon="6.08748">
        <ele>490.8</ele>
        <time>2012-03-29T14:36:35Z</time>
      </trkpt>
      <trkpt lat="47.09423" lon="6.08748">
        <ele>422.3</ele>
        <time>2012-03-29T14:36:47Z</time>
      </trkpt>
      <trkpt lat="47.09423" lon="6.08748">
        <ele>422.3</ele>
        <time>2012-03-29T14:36:49Z</time>
      </trkpt>
      <trkpt lat="47.09422" lon="6.08767">
        <ele>487.4</ele>
        <time>2012-03-29T14:36:55Z</time>
      </trkpt>
      <trkpt lat="47.09423" lon="6.08777">
        <ele>484.2</ele>
        <time>2012-03-29T14:37:03Z</time>
      </trkpt>
      <trkpt lat="47.09421" lon="6.08786">
        <ele>485.8</ele>
        <time>2012-03-29T14:37:10Z</time>
      </trkpt>
      <trkpt lat="47.09421" lon="6.08796">
        <ele>485.8</ele>
        <time>2012-03-29T14:37:15Z</time>
      </trkpt>
      <trkpt lat="47.09421" lon="6.08796">
        <ele>422.4</ele>
        <time>2012-03-29T14:37:27Z</time>
      </trkpt>
      <trkpt lat="47.09421" lon="6.08796">
        <ele>422.4</ele>
        <time>2012-03-29T14:37:33Z</time>
      </trkpt>
      <trkpt lat="47.09418" lon="6.08815">
        <ele>482.7</ele>
        <time>2012-03-29T14:37:44Z</time>
      </trkpt>
      <trkpt lat="47.09416" lon="6.08824">
        <ele>481.8</ele>
        <time>2012-03-29T14:37:49Z</time>
      </trkpt>
      <trkpt lat="47.09419" lon="6.08833">
        <ele>481</ele>
        <time>2012-03-29T14:37:53Z</time>
      </trkpt>
      <trkpt lat="47.09416" lon="6.08843">
        <ele>481.6</ele>
        <time>2012-03-29T14:38:01Z</time>
      </trkpt>
      <trkpt lat="47.09411" lon="6.0885">
        <ele>479.7</ele>
        <time>2012-03-29T14:38:10Z</time>
      </trkpt>
      <trkpt lat="47.09411" lon="6.0886">
        <ele>476</ele>
        <time>2012-03-29T14:38:21Z</time>
      </trkpt>
      <trkpt lat="47.0941" lon="6.0887">
        <ele>475.7</ele>
        <time>2012-03-29T14:38:27Z</time>
      </trkpt>
      <trkpt lat="47.09408" lon="6.08879">
        <ele>476.5</ele>
        <time>2012-03-29T14:38:33Z</time>
      </trkpt>
      <trkpt lat="47.09405" lon="6.08888">
        <ele>476.6</ele>
        <time>2012-03-29T14:38:42Z</time>
      </trkpt>
      <trkpt lat="47.09406" lon="6.08897">
        <ele>476.7</ele>
        <time>2012-03-29T14:38:46Z</time>
      </trkpt>
      <trkpt lat="47.09406" lon="6.08897">
        <ele>417.9</ele>
        <time>2012-03-29T14:38:58Z</time>
      </trkpt>
      <trkpt lat="47.09406" lon="6.08897">
        <ele>417.9</ele>
        <time>2012-03-29T14:39:15Z</time>
      </trkpt>
      <trkpt lat="47.09406" lon="6.08897">
        <ele>417.9</ele>
        <time>2012-03-29T14:39:27Z</time>
      </trkpt>
      <trkpt lat="47.09406" lon="6.08897">
        <ele>417.9</ele>
        <time>2012-03-29T14:39:55Z</time>
      </trkpt>
      <trkpt lat="47.09399" lon="6.08924">
        <ele>476.9</ele>
        <time>2012-03-29T14:40:00Z</time>
      </trkpt>
      <trkpt lat="47.09397" lon="6.08933">
        <ele>475.1</ele>
        <time>2012-03-29T14:40:06Z</time>
      </trkpt>
      <trkpt lat="47.09392" lon="6.08941">
        <ele>475.4</ele>
        <time>2012-03-29T14:40:12Z</time>
      </trkpt>
      <trkpt lat="47.09391" lon="6.08951">
        <ele>473.3</ele>
        <time>2012-03-29T14:40:18Z</time>
      </trkpt>
      <trkpt lat="47.09387" lon="6.0896">
        <ele>473.7</ele>
        <time>2012-03-29T14:40:24Z</time>
      </trkpt>
      <trkpt lat="47.09383" lon="6.08967">
        <ele>472.7</ele>
        <time>2012-03-29T14:40:30Z</time>
      </trkpt>
      <trkpt lat="47.0938" lon="6.08977">
        <ele>469.3</ele>
        <time>2012-03-29T14:40:40Z</time>
      </trkpt>
      <trkpt lat="47.09378" lon="6.08986">
        <ele>468.8</ele>
        <time>2012-03-29T14:40:47Z</time>
      </trkpt>
      <trkpt lat="47.09377" lon="6.08995">
        <ele>468.4</ele>
        <time>2012-03-29T14:40:53Z</time>
      </trkpt>
      <trkpt lat="47.09374" lon="6.09003">
        <ele>467.7</ele>
        <time>2012-03-29T14:40:58Z</time>
      </trkpt>
      <trkpt lat="47.0937" lon="6.09011">
        <ele>469.5</ele>
        <time>2012-03-29T14:41:05Z</time>
      </trkpt>
      <trkpt lat="47.09364" lon="6.09016">
        <ele>471.1</ele>
        <time>2012-03-29T14:41:11Z</time>
      </trkpt>
      <trkpt lat="47.09364" lon="6.09016">
        <ele>404.5</ele>
        <time>2012-03-29T14:41:23Z</time>
      </trkpt>
      <trkpt lat="47.09364" lon="6.09016">
        <ele>404.5</ele>
        <time>2012-03-29T14:41:32Z</time>
      </trkpt>
      <trkpt lat="47.09354" lon="6.09028">
        <ele>466.9</ele>
        <time>2012-03-29T14:41:43Z</time>
      </trkpt>
      <trkpt lat="47.09349" lon="6.09035">
        <ele>466.9</ele>
        <time>2012-03-29T14:41:53Z</time>
      </trkpt>
      <trkpt lat="47.09349" lon="6.09035">
        <ele>400.5</ele>
        <time>2012-03-29T14:42:05Z</time>
      </trkpt>
      <trkpt lat="47.09349" lon="6.09035">
        <ele>400.5</ele>
        <time>2012-03-29T14:43:48Z</time>
      </trkpt>
      <trkpt lat="47.09349" lon="6.09015">
        <ele>451</ele>
        <time>2012-03-29T14:43:56Z</time>
      </trkpt>
      <trkpt lat="47.09351" lon="6.09006">
        <ele>451</ele>
        <time>2012-03-29T14:44:02Z</time>
      </trkpt>
      <trkpt lat="47.09349" lon="6.08996">
        <ele>451.7</ele>
        <time>2012-03-29T14:44:09Z</time>
      </trkpt>
      <trkpt lat="47.09349" lon="6.08996">
        <ele>396.7</ele>
        <time>2012-03-29T14:44:20Z</time>
      </trkpt>
      <trkpt lat="47.09349" lon="6.08996">
        <ele>396.7</ele>
        <time>2012-03-29T14:44:25Z</time>
      </trkpt>
      <trkpt lat="47.09349" lon="6.08996">
        <ele>396.7</ele>
        <time>2012-03-29T14:44:37Z</time>
      </trkpt>
      <trkpt lat="47.09349" lon="6.08996">
        <ele>396.7</ele>
        <time>2012-03-29T14:44:37Z</time>
      </trkpt>
      <trkpt lat="47.09349" lon="6.08996">
        <ele>396.7</ele>
        <time>2012-03-29T14:44:49Z</time>
      </trkpt>
      <trkpt lat="47.09349" lon="6.08996">
        <ele>396.7</ele>
        <time>2012-03-29T14:45:25Z</time>
      </trkpt>
      <trkpt lat="47.09349" lon="6.08996">
        <ele>396.7</ele>
        <time>2012-03-29T14:45:37Z</time>
      </trkpt>
      <trkpt lat="47.09349" lon="6.08996">
        <ele>396.7</ele>
        <time>2012-03-29T14:46:20Z</time>
      </trkpt>
      <trkpt lat="47.09349" lon="6.08996">
        <ele>396.7</ele>
        <time>2012-03-29T14:46:31Z</time>
      </trkpt>
      <trkpt lat="47.09349" lon="6.08996">
        <ele>396.7</ele>
        <time>2012-03-29T14:47:43Z</time>
      </trkpt>
      <trkpt lat="47.09348" lon="6.08937">
        <ele>448</ele>
        <time>2012-03-29T14:47:54Z</time>
      </trkpt>
      <trkpt lat="47.09348" lon="6.08928">
        <ele>447.9</ele>
        <time>2012-03-29T14:48:01Z</time>
      </trkpt>
      <trkpt lat="47.09346" lon="6.08919">
        <ele>448.4</ele>
        <time>2012-03-29T14:48:07Z</time>
      </trkpt>
      <trkpt lat="47.09344" lon="6.08909">
        <ele>446.8</ele>
        <time>2012-03-29T14:48:13Z</time>
      </trkpt>
      <trkpt lat="47.09342" lon="6.08899">
        <ele>446.4</ele>
        <time>2012-03-29T14:48:20Z</time>
      </trkpt>
      <trkpt lat="47.09338" lon="6.08891">
        <ele>447.5</ele>
        <time>2012-03-29T14:48:25Z</time>
      </trkpt>
      <trkpt lat="47.09337" lon="6.08881">
        <ele>445.3</ele>
        <time>2012-03-29T14:48:31Z</time>
      </trkpt>
      <trkpt lat="47.09337" lon="6.08881">
        <ele>389.6</ele>
        <time>2012-03-29T14:48:43Z</time>
      </trkpt>
      <trkpt lat="47.09337" lon="6.08881">
        <ele>389.6</ele>
        <time>2012-03-29T14:48:44Z</time>
      </trkpt>
      <trkpt lat="47.09337" lon="6.0886">
        <ele>444.3</ele>
        <time>2012-03-29T14:48:47Z</time>
      </trkpt>
      <trkpt lat="47.09335" lon="6.08851">
        <ele>445</ele>
        <time>2012-03-29T14:48:56Z</time>
      </trkpt>
      <trkpt lat="47.09335" lon="6.0884">
        <ele>444.3</ele>
        <time>2012-03-29T14:49:03Z</time>
      </trkpt>
      <trkpt lat="47.09332" lon="6.08831">
        <ele>444</ele>
        <time>2012-03-29T14:49:08Z</time>
      </trkpt>
      <trkpt lat="47.09331" lon="6.0882">
        <ele>444</ele>
        <time>2012-03-29T14:49:14Z</time>
      </trkpt>
      <trkpt lat="47.09328" lon="6.0881">
        <ele>443</ele>
        <time>2012-03-29T14:49:20Z</time>
      </trkpt>
      <trkpt lat="47.09324" lon="6.088">
        <ele>442.6</ele>
        <time>2012-03-29T14:49:26Z</time>
      </trkpt>
      <trkpt lat="47.09322" lon="6.08789">
        <ele>440.7</ele>
        <time>2012-03-29T14:49:34Z</time>
      </trkpt>
      <trkpt lat="47.09323" lon="6.08779">
        <ele>438.5</ele>
        <time>2012-03-29T14:49:40Z</time>
      </trkpt>
      <trkpt lat="47.09324" lon="6.08768">
        <ele>436.5</ele>
        <time>2012-03-29T14:49:48Z</time>
      </trkpt>
      <trkpt lat="47.09318" lon="6.0876">
        <ele>435.3</ele>
        <time>2012-03-29T14:49:57Z</time>
      </trkpt>
      <trkpt lat="47.09316" lon="6.0875">
        <ele>435.8</ele>
        <time>2012-03-29T14:50:03Z</time>
      </trkpt>
      <trkpt lat="47.09313" lon="6.08742">
        <ele>435.4</ele>
        <time>2012-03-29T14:50:08Z</time>
      </trkpt>
      <trkpt lat="47.0931" lon="6.08733">
        <ele>436.7</ele>
        <time>2012-03-29T14:50:16Z</time>
      </trkpt>
      <trkpt lat="47.09306" lon="6.08725">
        <ele>437.6</ele>
        <time>2012-03-29T14:50:24Z</time>
      </trkpt>
      <trkpt lat="47.09306" lon="6.08715">
        <ele>437.7</ele>
        <time>2012-03-29T14:50:28Z</time>
      </trkpt>
      <trkpt lat="47.09305" lon="6.08703">
        <ele>437.5</ele>
        <time>2012-03-29T14:50:35Z</time>
      </trkpt>
      <trkpt lat="47.09303" lon="6.08695">
        <ele>436</ele>
        <time>2012-03-29T14:50:40Z</time>
      </trkpt>
      <trkpt lat="47.09302" lon="6.08685">
        <ele>434.1</ele>
        <time>2012-03-29T14:50:48Z</time>
      </trkpt>
      <trkpt lat="47.09303" lon="6.08675">
        <ele>433.7</ele>
        <time>2012-03-29T14:50:54Z</time>
      </trkpt>
      <trkpt lat="47.09301" lon="6.08666">
        <ele>434.3</ele>
        <time>2012-03-29T14:50:58Z</time>
      </trkpt>
      <trkpt lat="47.09299" lon="6.08658">
        <ele>435.5</ele>
        <time>2012-03-29T14:51:07Z</time>
      </trkpt>
      <trkpt lat="47.09297" lon="6.08648">
        <ele>434.9</ele>
        <time>2012-03-29T14:51:14Z</time>
      </trkpt>
      <trkpt lat="47.09296" lon="6.08639">
        <ele>434.6</ele>
        <time>2012-03-29T14:51:19Z</time>
      </trkpt>
      <trkpt lat="47.09294" lon="6.0863">
        <ele>434.7</ele>
        <time>2012-03-29T14:51:24Z</time>
      </trkpt>
      <trkpt lat="47.09296" lon="6.0862">
        <ele>434.7</ele>
        <time>2012-03-29T14:51:31Z</time>
      </trkpt>
      <trkpt lat="47.09297" lon="6.08611">
        <ele>434.4</ele>
        <time>2012-03-29T14:51:37Z</time>
      </trkpt>
      <trkpt lat="47.09296" lon="6.08601">
        <ele>435</ele>
        <time>2012-03-29T14:51:43Z</time>
      </trkpt>
      <trkpt lat="47.09296" lon="6.08591">
        <ele>435.1</ele>
        <time>2012-03-29T14:51:53Z</time>
      </trkpt>
      <trkpt lat="47.09295" lon="6.08582">
        <ele>434.8</ele>
        <time>2012-03-29T14:51:58Z</time>
      </trkpt>
      <trkpt lat="47.09293" lon="6.08571">
        <ele>432.5</ele>
        <time>2012-03-29T14:52:08Z</time>
      </trkpt>
      <trkpt lat="47.09295" lon="6.08563">
        <ele>432.5</ele>
        <time>2012-03-29T14:52:12Z</time>
      </trkpt>
      <trkpt lat="47.09293" lon="6.08553">
        <ele>430.3</ele>
        <time>2012-03-29T14:52:23Z</time>
      </trkpt>
      <trkpt lat="47.09295" lon="6.08543">
        <ele>428.8</ele>
        <time>2012-03-29T14:52:29Z</time>
      </trkpt>
      <trkpt lat="47.09293" lon="6.08533">
        <ele>427.9</ele>
        <time>2012-03-29T14:52:34Z</time>
      </trkpt>
      <trkpt lat="47.09295" lon="6.08524">
        <ele>428.7</ele>
        <time>2012-03-29T14:52:40Z</time>
      </trkpt>
      <trkpt lat="47.09293" lon="6.08513">
        <ele>429.1</ele>
        <time>2012-03-29T14:52:46Z</time>
      </trkpt>
      <trkpt lat="47.09295" lon="6.08503">
        <ele>428</ele>
        <time>2012-03-29T14:52:55Z</time>
      </trkpt>
      <trkpt lat="47.09299" lon="6.08495">
        <ele>425.3</ele>
        <time>2012-03-29T14:53:03Z</time>
      </trkpt>
      <trkpt lat="47.093" lon="6.08485">
        <ele>425</ele>
        <time>2012-03-29T14:53:09Z</time>
      </trkpt>
      <trkpt lat="47.09297" lon="6.08475">
        <ele>425</ele>
        <time>2012-03-29T14:53:15Z</time>
      </trkpt>
      <trkpt lat="47.09299" lon="6.08465">
        <ele>424.6</ele>
        <time>2012-03-29T14:53:21Z</time>
      </trkpt>
      <trkpt lat="47.093" lon="6.08454">
        <ele>424.9</ele>
        <time>2012-03-29T14:53:29Z</time>
      </trkpt>
      <trkpt lat="47.09304" lon="6.08447">
        <ele>426.7</ele>
        <time>2012-03-29T14:53:33Z</time>
      </trkpt>
      <trkpt lat="47.09301" lon="6.08437">
        <ele>426</ele>
        <time>2012-03-29T14:53:38Z</time>
      </trkpt>
      <trkpt lat="47.093" lon="6.08428">
        <ele>423.5</ele>
        <time>2012-03-29T14:53:43Z</time>
      </trkpt>
      <trkpt lat="47.09296" lon="6.0842">
        <ele>424</ele>
        <time>2012-03-29T14:53:49Z</time>
      </trkpt>
      <trkpt lat="47.09299" lon="6.0841">
        <ele>423.7</ele>
        <time>2012-03-29T14:53:54Z</time>
      </trkpt>
      <trkpt lat="47.09301" lon="6.084">
        <ele>422.7</ele>
        <time>2012-03-29T14:54:02Z</time>
      </trkpt>
      <trkpt lat="47.09299" lon="6.08391">
        <ele>421.2</ele>
        <time>2012-03-29T14:54:07Z</time>
      </trkpt>
      <trkpt lat="47.09299" lon="6.0838">
        <ele>420.6</ele>
        <time>2012-03-29T14:54:15Z</time>
      </trkpt>
      <trkpt lat="47.09302" lon="6.0837">
        <ele>420.8</ele>
        <time>2012-03-29T14:54:23Z</time>
      </trkpt>
      <trkpt lat="47.09303" lon="6.0836">
        <ele>420.4</ele>
        <time>2012-03-29T14:54:29Z</time>
      </trkpt>
      <trkpt lat="47.09305" lon="6.08352">
        <ele>420.5</ele>
        <time>2012-03-29T14:54:34Z</time>
      </trkpt>
      <trkpt lat="47.09305" lon="6.08352">
        <ele>372.5</ele>
        <time>2012-03-29T14:54:46Z</time>
      </trkpt>
      <trkpt lat="47.09305" lon="6.08352">
        <ele>372.5</ele>
        <time>2012-03-29T14:54:58Z</time>
      </trkpt>
      <trkpt lat="47.09307" lon="6.08334">
        <ele>423</ele>
        <time>2012-03-29T14:55:02Z</time>
      </trkpt>
      <trkpt lat="47.09308" lon="6.08325">
        <ele>422.6</ele>
        <time>2012-03-29T14:55:06Z</time>
      </trkpt>
      <trkpt lat="47.09312" lon="6.08315">
        <ele>423.2</ele>
        <time>2012-03-29T14:55:11Z</time>
      </trkpt>
      <trkpt lat="47.09311" lon="6.08305">
        <ele>423.1</ele>
        <time>2012-03-29T14:55:17Z</time>
      </trkpt>
      <trkpt lat="47.09309" lon="6.08295">
        <ele>424.5</ele>
        <time>2012-03-29T14:55:23Z</time>
      </trkpt>
      <trkpt lat="47.09304" lon="6.08288">
        <ele>423.6</ele>
        <time>2012-03-29T14:55:29Z</time>
      </trkpt>
      <trkpt lat="47.09304" lon="6.08288">
        <ele>371.8</ele>
        <time>2012-03-29T14:55:40Z</time>
      </trkpt>
      <trkpt lat="47.09304" lon="6.08288">
        <ele>371.8</ele>
        <time>2012-03-29T14:55:41Z</time>
      </trkpt>
      <trkpt lat="47.09313" lon="6.0827">
        <ele>422.2</ele>
        <time>2012-03-29T14:55:45Z</time>
      </trkpt>
      <trkpt lat="47.09314" lon="6.0826">
        <ele>422.8</ele>
        <time>2012-03-29T14:55:48Z</time>
      </trkpt>
      <trkpt lat="47.09315" lon="6.08248">
        <ele>422.5</ele>
        <time>2012-03-29T14:55:52Z</time>
      </trkpt>
      <trkpt lat="47.09316" lon="6.08238">
        <ele>420.6</ele>
        <time>2012-03-29T14:55:57Z</time>
      </trkpt>
      <trkpt lat="47.09319" lon="6.0823">
        <ele>419.4</ele>
        <time>2012-03-29T14:56:04Z</time>
      </trkpt>
      <trkpt lat="47.09317" lon="6.08219">
        <ele>421.8</ele>
        <time>2012-03-29T14:56:09Z</time>
      </trkpt>
      <trkpt lat="47.09321" lon="6.08212">
        <ele>422.1</ele>
        <time>2012-03-29T14:56:14Z</time>
      </trkpt>
      <trkpt lat="47.0932" lon="6.08202">
        <ele>422.1</ele>
        <time>2012-03-29T14:56:18Z</time>
      </trkpt>
      <trkpt lat="47.09322" lon="6.08192">
        <ele>422.7</ele>
        <time>2012-03-29T14:56:24Z</time>
      </trkpt>
      <trkpt lat="47.09324" lon="6.08183">
        <ele>421.3</ele>
        <time>2012-03-29T14:56:31Z</time>
      </trkpt>
      <trkpt lat="47.09324" lon="6.08183">
        <ele>373.6</ele>
        <time>2012-03-29T14:56:43Z</time>
      </trkpt>
      <trkpt lat="47.09324" lon="6.08183">
        <ele>373.6</ele>
        <time>2012-03-29T14:56:51Z</time>
      </trkpt>
      <trkpt lat="47.09325" lon="6.08164">
        <ele>419.5</ele>
        <time>2012-03-29T14:56:57Z</time>
      </trkpt>
      <trkpt lat="47.09328" lon="6.08154">
        <ele>419.6</ele>
        <time>2012-03-29T14:57:03Z</time>
      </trkpt>
      <trkpt lat="47.09331" lon="6.08142">
        <ele>419.7</ele>
        <time>2012-03-29T14:57:08Z</time>
      </trkpt>
      <trkpt lat="47.09331" lon="6.08131">
        <ele>418.9</ele>
        <time>2012-03-29T14:57:13Z</time>
      </trkpt>
      <trkpt lat="47.09334" lon="6.08122">
        <ele>420.1</ele>
        <time>2012-03-29T14:57:19Z</time>
      </trkpt>
      <trkpt lat="47.09332" lon="6.08109">
        <ele>421.1</ele>
        <time>2012-03-29T14:57:29Z</time>
      </trkpt>
      <trkpt lat="47.09336" lon="6.08102">
        <ele>420.1</ele>
        <time>2012-03-29T14:57:32Z</time>
      </trkpt>
      <trkpt lat="47.09336" lon="6.08092">
        <ele>419.8</ele>
        <time>2012-03-29T14:57:38Z</time>
      </trkpt>
      <trkpt lat="47.09335" lon="6.0808">
        <ele>421.2</ele>
        <time>2012-03-29T14:57:44Z</time>
      </trkpt>
      <trkpt lat="47.09337" lon="6.08069">
        <ele>421.6</ele>
        <time>2012-03-29T14:57:51Z</time>
      </trkpt>
      <trkpt lat="47.09339" lon="6.0806">
        <ele>422.6</ele>
        <time>2012-03-29T14:57:59Z</time>
      </trkpt>
      <trkpt lat="47.09343" lon="6.0805">
        <ele>422.3</ele>
        <time>2012-03-29T14:58:08Z</time>
      </trkpt>
      <trkpt lat="47.09347" lon="6.08041">
        <ele>422.9</ele>
        <time>2012-03-29T14:58:14Z</time>
      </trkpt>
      <trkpt lat="47.09348" lon="6.08031">
        <ele>423.9</ele>
        <time>2012-03-29T14:58:20Z</time>
      </trkpt>
      <trkpt lat="47.09352" lon="6.08023">
        <ele>421.8</ele>
        <time>2012-03-29T14:58:30Z</time>
      </trkpt>
      <trkpt lat="47.09356" lon="6.08015">
        <ele>420.9</ele>
        <time>2012-03-29T14:58:36Z</time>
      </trkpt>
      <trkpt lat="47.09359" lon="6.08006">
        <ele>419.5</ele>
        <time>2012-03-29T14:58:43Z</time>
      </trkpt>
      <trkpt lat="47.0936" lon="6.07996">
        <ele>419.1</ele>
        <time>2012-03-29T14:58:49Z</time>
      </trkpt>
      <trkpt lat="47.0936" lon="6.07996">
        <ele>375.2</ele>
        <time>2012-03-29T14:59:01Z</time>
      </trkpt>
      <trkpt lat="47.0936" lon="6.07996">
        <ele>375.2</ele>
        <time>2012-03-29T14:59:29Z</time>
      </trkpt>
      <trkpt lat="47.0936" lon="6.07996">
        <ele>375.2</ele>
        <time>2012-03-29T14:59:41Z</time>
      </trkpt>
      <trkpt lat="47.0936" lon="6.07996">
        <ele>375.2</ele>
        <time>2012-03-29T15:01:17Z</time>
      </trkpt>
      <trkpt lat="47.09371" lon="6.0797">
        <ele>421.6</ele>
        <time>2012-03-29T15:01:21Z</time>
      </trkpt>
      <trkpt lat="47.09375" lon="6.0796">
        <ele>422.7</ele>
        <time>2012-03-29T15:01:25Z</time>
      </trkpt>
      <trkpt lat="47.0938" lon="6.07951">
        <ele>424.1</ele>
        <time>2012-03-29T15:01:29Z</time>
      </trkpt>
      <trkpt lat="47.09384" lon="6.07942">
        <ele>425.9</ele>
        <time>2012-03-29T15:01:34Z</time>
      </trkpt>
      <trkpt lat="47.09386" lon="6.07933">
        <ele>425.3</ele>
        <time>2012-03-29T15:01:40Z</time>
      </trkpt>
      <trkpt lat="47.09389" lon="6.07925">
        <ele>424.7</ele>
        <time>2012-03-29T15:01:44Z</time>
      </trkpt>
      <trkpt lat="47.09394" lon="6.07917">
        <ele>424.2</ele>
        <time>2012-03-29T15:01:53Z</time>
      </trkpt>
      <trkpt lat="47.09394" lon="6.07917">
        <ele>373.7</ele>
        <time>2012-03-29T15:02:04Z</time>
      </trkpt>
      <trkpt lat="47.09394" lon="6.07917">
        <ele>373.7</ele>
        <time>2012-03-29T15:02:21Z</time>
      </trkpt>
      <trkpt lat="47.09394" lon="6.07917">
        <ele>373.7</ele>
        <time>2012-03-29T15:02:33Z</time>
      </trkpt>
      <trkpt lat="47.09394" lon="6.07917">
        <ele>373.7</ele>
        <time>2012-03-29T15:02:37Z</time>
      </trkpt>
      <trkpt lat="47.09394" lon="6.07917">
        <ele>373.7</ele>
        <time>2012-03-29T15:02:49Z</time>
      </trkpt>
      <trkpt lat="47.09394" lon="6.07917">
        <ele>373.7</ele>
        <time>2012-03-29T15:03:00Z</time>
      </trkpt>
      <trkpt lat="47.09394" lon="6.07917">
        <ele>373.7</ele>
        <time>2012-03-29T15:03:12Z</time>
      </trkpt>
      <trkpt lat="47.09394" lon="6.07917">
        <ele>373.7</ele>
        <time>2012-03-29T15:03:51Z</time>
      </trkpt>
      <trkpt lat="47.09411" lon="6.07874">
        <ele>428.4</ele>
        <time>2012-03-29T15:03:55Z</time>
      </trkpt>
      <trkpt lat="47.09417" lon="6.07866">
        <ele>428.1</ele>
        <time>2012-03-29T15:03:59Z</time>
      </trkpt>
      <trkpt lat="47.09421" lon="6.07859">
        <ele>428.1</ele>
        <time>2012-03-29T15:04:04Z</time>
      </trkpt>
      <trkpt lat="47.09424" lon="6.07851">
        <ele>427</ele>
        <time>2012-03-29T15:04:09Z</time>
      </trkpt>
      <trkpt lat="47.0943" lon="6.07843">
        <ele>425.8</ele>
        <time>2012-03-29T15:04:14Z</time>
      </trkpt>
      <trkpt lat="47.09433" lon="6.07834">
        <ele>423.6</ele>
        <time>2012-03-29T15:04:19Z</time>
      </trkpt>
      <trkpt lat="47.09438" lon="6.07828">
        <ele>423.7</ele>
        <time>2012-03-29T15:04:24Z</time>
      </trkpt>
      <trkpt lat="47.09443" lon="6.0782">
        <ele>422.5</ele>
        <time>2012-03-29T15:04:33Z</time>
      </trkpt>
      <trkpt lat="47.0945" lon="6.07814">
        <ele>422.3</ele>
        <time>2012-03-29T15:04:41Z</time>
      </trkpt>
      <trkpt lat="47.09455" lon="6.07809">
        <ele>423.3</ele>
        <time>2012-03-29T15:04:46Z</time>
      </trkpt>
      <trkpt lat="47.09461" lon="6.07805">
        <ele>423.6</ele>
        <time>2012-03-29T15:04:50Z</time>
      </trkpt>
      <trkpt lat="47.09467" lon="6.07799">
        <ele>423.6</ele>
        <time>2012-03-29T15:04:55Z</time>
      </trkpt>
      <trkpt lat="47.09473" lon="6.07798">
        <ele>422.5</ele>
        <time>2012-03-29T15:05:04Z</time>
      </trkpt>
      <trkpt lat="47.09473" lon="6.07798">
        <ele>371.1</ele>
        <time>2012-03-29T15:05:16Z</time>
      </trkpt>
      <trkpt lat="47.09473" lon="6.07798">
        <ele>371.1</ele>
        <time>2012-03-29T15:05:31Z</time>
      </trkpt>
      <trkpt lat="47.09488" lon="6.07794">
        <ele>422.9</ele>
        <time>2012-03-29T15:05:35Z</time>
      </trkpt>
      <trkpt lat="47.09495" lon="6.07791">
        <ele>423.8</ele>
        <time>2012-03-29T15:05:39Z</time>
      </trkpt>
      <trkpt lat="47.09501" lon="6.07786">
        <ele>422.9</ele>
        <time>2012-03-29T15:05:44Z</time>
      </trkpt>
      <trkpt lat="47.09508" lon="6.07784">
        <ele>422.5</ele>
        <time>2012-03-29T15:05:48Z</time>
      </trkpt>
      <trkpt lat="47.09514" lon="6.07779">
        <ele>421.6</ele>
        <time>2012-03-29T15:05:55Z</time>
      </trkpt>
      <trkpt lat="47.09522" lon="6.07777">
        <ele>419.1</ele>
        <time>2012-03-29T15:06:03Z</time>
      </trkpt>
      <trkpt lat="47.09529" lon="6.07772">
        <ele>420.3</ele>
        <time>2012-03-29T15:06:09Z</time>
      </trkpt>
      <trkpt lat="47.09534" lon="6.07766">
        <ele>420.1</ele>
        <time>2012-03-29T15:06:15Z</time>
      </trkpt>
      <trkpt lat="47.09542" lon="6.07783">
        <ele>412.4</ele>
        <time>2012-03-29T15:06:25Z</time>
      </trkpt>
      <trkpt lat="47.09538" lon="6.07775">
        <ele>410.1</ele>
        <time>2012-03-29T15:06:33Z</time>
      </trkpt>
      <trkpt lat="47.09538" lon="6.07775">
        <ele>372.1</ele>
        <time>2012-03-29T15:06:45Z</time>
      </trkpt>
      <trkpt lat="47.09538" lon="6.07775">
        <ele>372.1</ele>
        <time>2012-03-29T15:06:47Z</time>
      </trkpt>
      <trkpt lat="47.09531" lon="6.07758">
        <ele>417.8</ele>
        <time>2012-03-29T15:06:51Z</time>
      </trkpt>
      <trkpt lat="47.09525" lon="6.07753">
        <ele>418.3</ele>
        <time>2012-03-29T15:06:57Z</time>
      </trkpt>
      <trkpt lat="47.09521" lon="6.07745">
        <ele>418.9</ele>
        <time>2012-03-29T15:07:03Z</time>
      </trkpt>
      <trkpt lat="47.09518" lon="6.07736">
        <ele>418.5</ele>
        <time>2012-03-29T15:07:07Z</time>
      </trkpt>
      <trkpt lat="47.09509" lon="6.07732">
        <ele>417.8</ele>
        <time>2012-03-29T15:07:14Z</time>
      </trkpt>
      <trkpt lat="47.09504" lon="6.07727">
        <ele>417.2</ele>
        <time>2012-03-29T15:07:19Z</time>
      </trkpt>
      <trkpt lat="47.09501" lon="6.07718">
        <ele>412.7</ele>
        <time>2012-03-29T15:07:28Z</time>
      </trkpt>
      <trkpt lat="47.09501" lon="6.07718">
        <ele>367.7</ele>
        <time>2012-03-29T15:07:40Z</time>
      </trkpt>
      <trkpt lat="47.09501" lon="6.07718">
        <ele>367.7</ele>
        <time>2012-03-29T15:07:52Z</time>
      </trkpt>
      <trkpt lat="47.0949" lon="6.07703">
        <ele>412.2</ele>
        <time>2012-03-29T15:07:56Z</time>
      </trkpt>
      <trkpt lat="47.09486" lon="6.07695">
        <ele>410.8</ele>
        <time>2012-03-29T15:08:01Z</time>
      </trkpt>
      <trkpt lat="47.0948" lon="6.0769">
        <ele>411.8</ele>
        <time>2012-03-29T15:08:05Z</time>
      </trkpt>
      <trkpt lat="47.09474" lon="6.07683">
        <ele>411</ele>
        <time>2012-03-29T15:08:10Z</time>
      </trkpt>
      <trkpt lat="47.0947" lon="6.07676">
        <ele>411.2</ele>
        <time>2012-03-29T15:08:15Z</time>
      </trkpt>
      <trkpt lat="47.09465" lon="6.0767">
        <ele>412</ele>
        <time>2012-03-29T15:08:20Z</time>
      </trkpt>
      <trkpt lat="47.0946" lon="6.07664">
        <ele>409.9</ele>
        <time>2012-03-29T15:08:24Z</time>
      </trkpt>
      <trkpt lat="47.09455" lon="6.07658">
        <ele>408.6</ele>
        <time>2012-03-29T15:08:28Z</time>
      </trkpt>
      <trkpt lat="47.09448" lon="6.0765">
        <ele>407.7</ele>
        <time>2012-03-29T15:08:39Z</time>
      </trkpt>
      <trkpt lat="47.09443" lon="6.07642">
        <ele>408.4</ele>
        <time>2012-03-29T15:08:44Z</time>
      </trkpt>
      <trkpt lat="47.09438" lon="6.07635">
        <ele>407.8</ele>
        <time>2012-03-29T15:08:48Z</time>
      </trkpt>
      <trkpt lat="47.09434" lon="6.07627">
        <ele>407</ele>
        <time>2012-03-29T15:08:53Z</time>
      </trkpt>
      <trkpt lat="47.09432" lon="6.07616">
        <ele>407.6</ele>
        <time>2012-03-29T15:09:00Z</time>
      </trkpt>
      <trkpt lat="47.09426" lon="6.0761">
        <ele>408</ele>
        <time>2012-03-29T15:09:03Z</time>
      </trkpt>
      <trkpt lat="47.0942" lon="6.07602">
        <ele>409.5</ele>
        <time>2012-03-29T15:09:07Z</time>
      </trkpt>
      <trkpt lat="47.09413" lon="6.07599">
        <ele>407.2</ele>
        <time>2012-03-29T15:09:12Z</time>
      </trkpt>
      <trkpt lat="47.09411" lon="6.0759">
        <ele>407.6</ele>
        <time>2012-03-29T15:09:16Z</time>
      </trkpt>
      <trkpt lat="47.09406" lon="6.07584">
        <ele>406.1</ele>
        <time>2012-03-29T15:09:21Z</time>
      </trkpt>
      <trkpt lat="47.09401" lon="6.07576">
        <ele>405.6</ele>
        <time>2012-03-29T15:09:28Z</time>
      </trkpt>
      <trkpt lat="47.09395" lon="6.07571">
        <ele>404.7</ele>
        <time>2012-03-29T15:09:32Z</time>
      </trkpt>
      <trkpt lat="47.0939" lon="6.07562">
        <ele>404</ele>
        <time>2012-03-29T15:09:40Z</time>
      </trkpt>
      <trkpt lat="47.09384" lon="6.07557">
        <ele>403.6</ele>
        <time>2012-03-29T15:09:44Z</time>
      </trkpt>
      <trkpt lat="47.0938" lon="6.07549">
        <ele>402.8</ele>
        <time>2012-03-29T15:09:49Z</time>
      </trkpt>
      <trkpt lat="47.09376" lon="6.07539">
        <ele>403.8</ele>
        <time>2012-03-29T15:09:58Z</time>
      </trkpt>
      <trkpt lat="47.09372" lon="6.07532">
        <ele>403.8</ele>
        <time>2012-03-29T15:10:08Z</time>
      </trkpt>
      <trkpt lat="47.09366" lon="6.07524">
        <ele>404.7</ele>
        <time>2012-03-29T15:10:11Z</time>
      </trkpt>
      <trkpt lat="47.0936" lon="6.07516">
        <ele>405.6</ele>
        <time>2012-03-29T15:10:15Z</time>
      </trkpt>
      <trkpt lat="47.09353" lon="6.07509">
        <ele>406.4</ele>
        <time>2012-03-29T15:10:19Z</time>
      </trkpt>
      <trkpt lat="47.09349" lon="6.07501">
        <ele>408.4</ele>
        <time>2012-03-29T15:10:24Z</time>
      </trkpt>
      <trkpt lat="47.09343" lon="6.07496">
        <ele>409.8</ele>
        <time>2012-03-29T15:10:28Z</time>
      </trkpt>
      <trkpt lat="47.09341" lon="6.07486">
        <ele>410.5</ele>
        <time>2012-03-29T15:10:34Z</time>
      </trkpt>
      <trkpt lat="47.09338" lon="6.07478">
        <ele>411</ele>
        <time>2012-03-29T15:10:39Z</time>
      </trkpt>
      <trkpt lat="47.09337" lon="6.07468">
        <ele>410.1</ele>
        <time>2012-03-29T15:10:44Z</time>
      </trkpt>
      <trkpt lat="47.09336" lon="6.07459">
        <ele>410.5</ele>
        <time>2012-03-29T15:10:49Z</time>
      </trkpt>
      <trkpt lat="47.09337" lon="6.07448">
        <ele>410.2</ele>
        <time>2012-03-29T15:10:55Z</time>
      </trkpt>
      <trkpt lat="47.09333" lon="6.07437">
        <ele>409.2</ele>
        <time>2012-03-29T15:11:00Z</time>
      </trkpt>
      <trkpt lat="47.09334" lon="6.07427">
        <ele>408.6</ele>
        <time>2012-03-29T15:11:05Z</time>
      </trkpt>
      <trkpt lat="47.09334" lon="6.07415">
        <ele>409.3</ele>
        <time>2012-03-29T15:11:10Z</time>
      </trkpt>
      <trkpt lat="47.09326" lon="6.07412">
        <ele>409.5</ele>
        <time>2012-03-29T15:11:14Z</time>
      </trkpt>
      <trkpt lat="47.09319" lon="6.07412">
        <ele>409.3</ele>
        <time>2012-03-29T15:11:19Z</time>
      </trkpt>
      <trkpt lat="47.09313" lon="6.07416">
        <ele>409.6</ele>
        <time>2012-03-29T15:11:26Z</time>
      </trkpt>
      <trkpt lat="47.09307" lon="6.0742">
        <ele>409.3</ele>
        <time>2012-03-29T15:11:29Z</time>
      </trkpt>
      <trkpt lat="47.09303" lon="6.07427">
        <ele>409.8</ele>
        <time>2012-03-29T15:11:33Z</time>
      </trkpt>
      <trkpt lat="47.09299" lon="6.07435">
        <ele>408.5</ele>
        <time>2012-03-29T15:11:38Z</time>
      </trkpt>
      <trkpt lat="47.09294" lon="6.07442">
        <ele>408.1</ele>
        <time>2012-03-29T15:11:42Z</time>
      </trkpt>
      <trkpt lat="47.09292" lon="6.07452">
        <ele>408.4</ele>
        <time>2012-03-29T15:11:47Z</time>
      </trkpt>
      <trkpt lat="47.09286" lon="6.07458">
        <ele>408.4</ele>
        <time>2012-03-29T15:11:54Z</time>
      </trkpt>
      <trkpt lat="47.09284" lon="6.07468">
        <ele>409.3</ele>
        <time>2012-03-29T15:11:58Z</time>
      </trkpt>
      <trkpt lat="47.09284" lon="6.07468">
        <ele>352.7</ele>
        <time>2012-03-29T15:12:10Z</time>
      </trkpt>
      <trkpt lat="47.09284" lon="6.07468">
        <ele>352.7</ele>
        <time>2012-03-29T15:12:14Z</time>
      </trkpt>
      <trkpt lat="47.09273" lon="6.07483">
        <ele>409.8</ele>
        <time>2012-03-29T15:12:17Z</time>
      </trkpt>
      <trkpt lat="47.09267" lon="6.07491">
        <ele>409.8</ele>
        <time>2012-03-29T15:12:23Z</time>
      </trkpt>
      <trkpt lat="47.09263" lon="6.07499">
        <ele>409.7</ele>
        <time>2012-03-29T15:12:26Z</time>
      </trkpt>
      <trkpt lat="47.0926" lon="6.07507">
        <ele>410.4</ele>
        <time>2012-03-29T15:12:32Z</time>
      </trkpt>
      <trkpt lat="47.09255" lon="6.07516">
        <ele>410.2</ele>
        <time>2012-03-29T15:12:39Z</time>
      </trkpt>
      <trkpt lat="47.09253" lon="6.07527">
        <ele>411.9</ele>
        <time>2012-03-29T15:12:44Z</time>
      </trkpt>
      <trkpt lat="47.09253" lon="6.07527">
        <ele>349.6</ele>
        <time>2012-03-29T15:12:56Z</time>
      </trkpt>
      <trkpt lat="47.09253" lon="6.07527">
        <ele>349.6</ele>
        <time>2012-03-29T15:13:02Z</time>
      </trkpt>
      <trkpt lat="47.09245" lon="6.07537">
        <ele>410.4</ele>
        <time>2012-03-29T15:13:09Z</time>
      </trkpt>
      <trkpt lat="47.09235" lon="6.0754">
        <ele>409.8</ele>
        <time>2012-03-29T15:13:12Z</time>
      </trkpt>
      <trkpt lat="47.09229" lon="6.07537">
        <ele>407.6</ele>
        <time>2012-03-29T15:13:15Z</time>
      </trkpt>
      <trkpt lat="47.09223" lon="6.07535">
        <ele>404.5</ele>
        <time>2012-03-29T15:13:19Z</time>
      </trkpt>
      <trkpt lat="47.09227" lon="6.07526">
        <ele>402.4</ele>
        <time>2012-03-29T15:13:30Z</time>
      </trkpt>
      <trkpt lat="47.09228" lon="6.07517">
        <ele>399.7</ele>
        <time>2012-03-29T15:13:34Z</time>
      </trkpt>
      <trkpt lat="47.09228" lon="6.07506">
        <ele>397.2</ele>
        <time>2012-03-29T15:13:38Z</time>
      </trkpt>
      <trkpt lat="47.09225" lon="6.07498">
        <ele>395.7</ele>
        <time>2012-03-29T15:13:43Z</time>
      </trkpt>
      <trkpt lat="47.09227" lon="6.07488">
        <ele>395.6</ele>
        <time>2012-03-29T15:13:49Z</time>
      </trkpt>
      <trkpt lat="47.09227" lon="6.07479">
        <ele>393.5</ele>
        <time>2012-03-29T15:13:55Z</time>
      </trkpt>
      <trkpt lat="47.09227" lon="6.07468">
        <ele>393.6</ele>
        <time>2012-03-29T15:14:02Z</time>
      </trkpt>
      <trkpt lat="47.09224" lon="6.07459">
        <ele>391.6</ele>
        <time>2012-03-29T15:14:09Z</time>
      </trkpt>
      <trkpt lat="47.09222" lon="6.07449">
        <ele>392.1</ele>
        <time>2012-03-29T15:14:15Z</time>
      </trkpt>
      <trkpt lat="47.09219" lon="6.07441">
        <ele>391.2</ele>
        <time>2012-03-29T15:14:19Z</time>
      </trkpt>
      <trkpt lat="47.09219" lon="6.07431">
        <ele>390.8</ele>
        <time>2012-03-29T15:14:24Z</time>
      </trkpt>
      <trkpt lat="47.09216" lon="6.07422">
        <ele>391.1</ele>
        <time>2012-03-29T15:14:28Z</time>
      </trkpt>
      <trkpt lat="47.09212" lon="6.07412">
        <ele>392.2</ele>
        <time>2012-03-29T15:14:33Z</time>
      </trkpt>
      <trkpt lat="47.09211" lon="6.07402">
        <ele>390.8</ele>
        <time>2012-03-29T15:14:39Z</time>
      </trkpt>
      <trkpt lat="47.0921" lon="6.07393">
        <ele>392.6</ele>
        <time>2012-03-29T15:14:43Z</time>
      </trkpt>
      <trkpt lat="47.09207" lon="6.07384">
        <ele>393.8</ele>
        <time>2012-03-29T15:14:47Z</time>
      </trkpt>
      <trkpt lat="47.09207" lon="6.07375">
        <ele>392.6</ele>
        <time>2012-03-29T15:14:53Z</time>
      </trkpt>
      <trkpt lat="47.09208" lon="6.07365">
        <ele>390.2</ele>
        <time>2012-03-29T15:14:59Z</time>
      </trkpt>
      <trkpt lat="47.09205" lon="6.07357">
        <ele>390.4</ele>
        <time>2012-03-29T15:15:05Z</time>
      </trkpt>
      <trkpt lat="47.0921" lon="6.07349">
        <ele>389.1</ele>
        <time>2012-03-29T15:15:14Z</time>
      </trkpt>
      <trkpt lat="47.09206" lon="6.07342">
        <ele>387.7</ele>
        <time>2012-03-29T15:15:21Z</time>
      </trkpt>
      <trkpt lat="47.09205" lon="6.07333">
        <ele>387.3</ele>
        <time>2012-03-29T15:15:27Z</time>
      </trkpt>
      <trkpt lat="47.09208" lon="6.07322">
        <ele>388</ele>
        <time>2012-03-29T15:15:32Z</time>
      </trkpt>
      <trkpt lat="47.09208" lon="6.07311">
        <ele>389.5</ele>
        <time>2012-03-29T15:15:37Z</time>
      </trkpt>
      <trkpt lat="47.0921" lon="6.07301">
        <ele>389.5</ele>
        <time>2012-03-29T15:15:42Z</time>
      </trkpt>
      <trkpt lat="47.0921" lon="6.07292">
        <ele>388</ele>
        <time>2012-03-29T15:15:48Z</time>
      </trkpt>
      <trkpt lat="47.09207" lon="6.07283">
        <ele>387.6</ele>
        <time>2012-03-29T15:15:53Z</time>
      </trkpt>
      <trkpt lat="47.09212" lon="6.07275">
        <ele>388.3</ele>
        <time>2012-03-29T15:15:57Z</time>
      </trkpt>
      <trkpt lat="47.09214" lon="6.07264">
        <ele>388.8</ele>
        <time>2012-03-29T15:16:03Z</time>
      </trkpt>
      <trkpt lat="47.09216" lon="6.07254">
        <ele>386.8</ele>
        <time>2012-03-29T15:16:11Z</time>
      </trkpt>
      <trkpt lat="47.09217" lon="6.07244">
        <ele>386.4</ele>
        <time>2012-03-29T15:16:18Z</time>
      </trkpt>
      <trkpt lat="47.0922" lon="6.07235">
        <ele>384.5</ele>
        <time>2012-03-29T15:16:24Z</time>
      </trkpt>
      <trkpt lat="47.09223" lon="6.07224">
        <ele>383.3</ele>
        <time>2012-03-29T15:16:28Z</time>
      </trkpt>
      <trkpt lat="47.09226" lon="6.07214">
        <ele>383.1</ele>
        <time>2012-03-29T15:16:33Z</time>
      </trkpt>
      <trkpt lat="47.09226" lon="6.07214">
        <ele>332.4</ele>
        <time>2012-03-29T15:16:45Z</time>
      </trkpt>
      <trkpt lat="47.09226" lon="6.07214">
        <ele>332.4</ele>
        <time>2012-03-29T15:16:46Z</time>
      </trkpt>
      <trkpt lat="47.09231" lon="6.07195">
        <ele>380.6</ele>
        <time>2012-03-29T15:16:49Z</time>
      </trkpt>
      <trkpt lat="47.09235" lon="6.07185">
        <ele>379</ele>
        <time>2012-03-29T15:16:53Z</time>
      </trkpt>
      <trkpt lat="47.09235" lon="6.07176">
        <ele>383</ele>
        <time>2012-03-29T15:16:58Z</time>
      </trkpt>
      <trkpt lat="47.09236" lon="6.07165">
        <ele>387.3</ele>
        <time>2012-03-29T15:17:03Z</time>
      </trkpt>
      <trkpt lat="47.0924" lon="6.07157">
        <ele>388.7</ele>
        <time>2012-03-29T15:17:09Z</time>
      </trkpt>
      <trkpt lat="47.09246" lon="6.07149">
        <ele>388.7</ele>
        <time>2012-03-29T15:17:13Z</time>
      </trkpt>
      <trkpt lat="47.09251" lon="6.07142">
        <ele>389</ele>
        <time>2012-03-29T15:17:19Z</time>
      </trkpt>
      <trkpt lat="47.09253" lon="6.07133">
        <ele>388.9</ele>
        <time>2012-03-29T15:17:23Z</time>
      </trkpt>
      <trkpt lat="47.09255" lon="6.07123">
        <ele>385.9</ele>
        <time>2012-03-29T15:17:30Z</time>
      </trkpt>
      <trkpt lat="47.09258" lon="6.07114">
        <ele>384.1</ele>
        <time>2012-03-29T15:17:34Z</time>
      </trkpt>
      <trkpt lat="47.09258" lon="6.07104">
        <ele>383.1</ele>
        <time>2012-03-29T15:17:39Z</time>
      </trkpt>
      <trkpt lat="47.09261" lon="6.07094">
        <ele>382.3</ele>
        <time>2012-03-29T15:17:46Z</time>
      </trkpt>
      <trkpt lat="47.09259" lon="6.07085">
        <ele>380</ele>
        <time>2012-03-29T15:17:52Z</time>
      </trkpt>
      <trkpt lat="47.0926" lon="6.07076">
        <ele>378.6</ele>
        <time>2012-03-29T15:17:57Z</time>
      </trkpt>
      <trkpt lat="47.09259" lon="6.07066">
        <ele>379</ele>
        <time>2012-03-29T15:18:02Z</time>
      </trkpt>
      <trkpt lat="47.09254" lon="6.0706">
        <ele>378.2</ele>
        <time>2012-03-29T15:18:07Z</time>
      </trkpt>
      <trkpt lat="47.0925" lon="6.07051">
        <ele>376.2</ele>
        <time>2012-03-29T15:18:15Z</time>
      </trkpt>
      <trkpt lat="47.09249" lon="6.07042">
        <ele>373.1</ele>
        <time>2012-03-29T15:18:23Z</time>
      </trkpt>
      <trkpt lat="47.09246" lon="6.07033">
        <ele>373.4</ele>
        <time>2012-03-29T15:18:28Z</time>
      </trkpt>
      <trkpt lat="47.0924" lon="6.07027">
        <ele>373.3</ele>
        <time>2012-03-29T15:18:32Z</time>
      </trkpt>
      <trkpt lat="47.09235" lon="6.0702">
        <ele>372.5</ele>
        <time>2012-03-29T15:18:37Z</time>
      </trkpt>
      <trkpt lat="47.09229" lon="6.07015">
        <ele>371.5</ele>
        <time>2012-03-29T15:18:43Z</time>
      </trkpt>
      <trkpt lat="47.09229" lon="6.07015">
        <ele>322.4</ele>
        <time>2012-03-29T15:18:55Z</time>
      </trkpt>
      <trkpt lat="47.09229" lon="6.07015">
        <ele>322.4</ele>
        <time>2012-03-29T15:19:49Z</time>
      </trkpt>
      <trkpt lat="47.09229" lon="6.06995">
        <ele>370.6</ele>
        <time>2012-03-29T15:19:58Z</time>
      </trkpt>
      <trkpt lat="47.09229" lon="6.06995">
        <ele>321.4</ele>
        <time>2012-03-29T15:20:09Z</time>
      </trkpt>
      <trkpt lat="47.09229" lon="6.06995">
        <ele>321.4</ele>
        <time>2012-03-29T15:20:13Z</time>
      </trkpt>
      <trkpt lat="47.09229" lon="6.06995">
        <ele>321.4</ele>
        <time>2012-03-29T15:20:24Z</time>
      </trkpt>
      <trkpt lat="47.09229" lon="6.06995">
        <ele>321.4</ele>
        <time>2012-03-29T15:20:26Z</time>
      </trkpt>
      <trkpt lat="47.0924" lon="6.06967">
        <ele>369.7</ele>
        <time>2012-03-29T15:20:30Z</time>
      </trkpt>
      <trkpt lat="47.09244" lon="6.0696">
        <ele>371.3</ele>
        <time>2012-03-29T15:20:36Z</time>
      </trkpt>
      <trkpt lat="47.09248" lon="6.06953">
        <ele>371.2</ele>
        <time>2012-03-29T15:20:42Z</time>
      </trkpt>
      <trkpt lat="47.09248" lon="6.06953">
        <ele>316.1</ele>
        <time>2012-03-29T15:20:54Z</time>
      </trkpt>
      <trkpt lat="47.09248" lon="6.06953">
        <ele>316.1</ele>
        <time>2012-03-29T15:21:01Z</time>
      </trkpt>
      <trkpt lat="47.09248" lon="6.06953">
        <ele>316.1</ele>
        <time>2012-03-29T15:21:13Z</time>
      </trkpt>
      <trkpt lat="47.09248" lon="6.06953">
        <ele>316.1</ele>
        <time>2012-03-29T15:22:09Z</time>
      </trkpt>
      <trkpt lat="47.09266" lon="6.06944">
        <ele>369.3</ele>
        <time>2012-03-29T15:22:11Z</time>
      </trkpt>
      <trkpt lat="47.09272" lon="6.06953">
        <ele>366.3</ele>
        <time>2012-03-29T15:22:15Z</time>
      </trkpt>
      <trkpt lat="47.09279" lon="6.06951">
        <ele>364.5</ele>
        <time>2012-03-29T15:22:18Z</time>
      </trkpt>
      <trkpt lat="47.09284" lon="6.06958">
        <ele>363.5</ele>
        <time>2012-03-29T15:22:24Z</time>
      </trkpt>
      <trkpt lat="47.09284" lon="6.06958">
        <ele>311.6</ele>
        <time>2012-03-29T15:22:35Z</time>
      </trkpt>
      <trkpt lat="47.09284" lon="6.06958">
        <ele>311.6</ele>
        <time>2012-03-29T15:22:38Z</time>
      </trkpt>
      <trkpt lat="47.09288" lon="6.06977">
        <ele>367.3</ele>
        <time>2012-03-29T15:22:44Z</time>
      </trkpt>
      <trkpt lat="47.09288" lon="6.06987">
        <ele>368.4</ele>
        <time>2012-03-29T15:22:49Z</time>
      </trkpt>
      <trkpt lat="47.09288" lon="6.06987">
        <ele>312.3</ele>
        <time>2012-03-29T15:23:01Z</time>
      </trkpt>
      <trkpt lat="47.09288" lon="6.06987">
        <ele>312.3</ele>
        <time>2012-03-29T15:23:05Z</time>
      </trkpt>
      <trkpt lat="47.09292" lon="6.07006">
        <ele>367.8</ele>
        <time>2012-03-29T15:23:13Z</time>
      </trkpt>
      <trkpt lat="47.09292" lon="6.07006">
        <ele>312.9</ele>
        <time>2012-03-29T15:23:25Z</time>
      </trkpt>
      <trkpt lat="47.09292" lon="6.07006">
        <ele>312.9</ele>
        <time>2012-03-29T15:23:46Z</time>
      </trkpt>
      <trkpt lat="47.09295" lon="6.07026">
        <ele>366.2</ele>
        <time>2012-03-29T15:23:53Z</time>
      </trkpt>
      <trkpt lat="47.093" lon="6.07035">
        <ele>365</ele>
        <time>2012-03-29T15:24:04Z</time>
      </trkpt>
      <trkpt lat="47.09303" lon="6.07044">
        <ele>364.9</ele>
        <time>2012-03-29T15:24:10Z</time>
      </trkpt>
      <trkpt lat="47.09308" lon="6.07052">
        <ele>366.2</ele>
        <time>2012-03-29T15:24:16Z</time>
      </trkpt>
      <trkpt lat="47.09313" lon="6.07057">
        <ele>365.2</ele>
        <time>2012-03-29T15:24:23Z</time>
      </trkpt>
      <trkpt lat="47.09316" lon="6.07066">
        <ele>363.6</ele>
        <time>2012-03-29T15:24:29Z</time>
      </trkpt>
      <trkpt lat="47.09317" lon="6.07075">
        <ele>364</ele>
        <time>2012-03-29T15:24:35Z</time>
      </trkpt>
      <trkpt lat="47.09315" lon="6.07084">
        <ele>364.6</ele>
        <time>2012-03-29T15:24:43Z</time>
      </trkpt>
      <trkpt lat="47.09321" lon="6.07085">
        <ele>366.1</ele>
        <time>2012-03-29T15:24:49Z</time>
      </trkpt>
      <trkpt lat="47.09321" lon="6.07085">
        <ele>312.9</ele>
        <time>2012-03-29T15:25:00Z</time>
      </trkpt>
      <trkpt lat="47.09321" lon="6.07085">
        <ele>312.9</ele>
        <time>2012-03-29T15:25:16Z</time>
      </trkpt>
      <trkpt lat="47.09332" lon="6.071">
        <ele>367.7</ele>
        <time>2012-03-29T15:25:23Z</time>
      </trkpt>
      <trkpt lat="47.09331" lon="6.0711">
        <ele>364.5</ele>
        <time>2012-03-29T15:25:32Z</time>
      </trkpt>
      <trkpt lat="47.09333" lon="6.0712">
        <ele>363.9</ele>
        <time>2012-03-29T15:25:41Z</time>
      </trkpt>
      <trkpt lat="47.09331" lon="6.0713">
        <ele>365.4</ele>
        <time>2012-03-29T15:25:49Z</time>
      </trkpt>
      <trkpt lat="47.09333" lon="6.0714">
        <ele>364.6</ele>
        <time>2012-03-29T15:25:56Z</time>
      </trkpt>
      <trkpt lat="47.09338" lon="6.07147">
        <ele>365.6</ele>
        <time>2012-03-29T15:26:03Z</time>
      </trkpt>
      <trkpt lat="47.09343" lon="6.07154">
        <ele>365.1</ele>
        <time>2012-03-29T15:26:09Z</time>
      </trkpt>
      <trkpt lat="47.09345" lon="6.07163">
        <ele>364</ele>
        <time>2012-03-29T15:26:17Z</time>
      </trkpt>
      <trkpt lat="47.09345" lon="6.07163">
        <ele>313.6</ele>
        <time>2012-03-29T15:26:29Z</time>
      </trkpt>
      <trkpt lat="47.09345" lon="6.07163">
        <ele>313.6</ele>
        <time>2012-03-29T15:26:37Z</time>
      </trkpt>
      <trkpt lat="47.0935" lon="6.07182">
        <ele>360.3</ele>
        <time>2012-03-29T15:26:43Z</time>
      </trkpt>
      <trkpt lat="47.09359" lon="6.0718">
        <ele>359.7</ele>
        <time>2012-03-29T15:26:46Z</time>
      </trkpt>
      <trkpt lat="47.09361" lon="6.07189">
        <ele>360.3</ele>
        <time>2012-03-29T15:26:55Z</time>
      </trkpt>
      <trkpt lat="47.09361" lon="6.07199">
        <ele>362.3</ele>
        <time>2012-03-29T15:27:04Z</time>
      </trkpt>
      <trkpt lat="47.09361" lon="6.07199">
        <ele>313</ele>
        <time>2012-03-29T15:27:15Z</time>
      </trkpt>
      <trkpt lat="47.09361" lon="6.07199">
        <ele>313</ele>
        <time>2012-03-29T15:27:25Z</time>
      </trkpt>
      <trkpt lat="47.09361" lon="6.07199">
        <ele>313</ele>
        <time>2012-03-29T15:27:37Z</time>
      </trkpt>
      <trkpt lat="47.09361" lon="6.07199">
        <ele>313</ele>
        <time>2012-03-29T15:30:14Z</time>
      </trkpt>
      <trkpt lat="47.09381" lon="6.07218">
        <ele>364.2</ele>
        <time>2012-03-29T15:30:17Z</time>
      </trkpt>
      <trkpt lat="47.09387" lon="6.07224">
        <ele>364.9</ele>
        <time>2012-03-29T15:30:20Z</time>
      </trkpt>
      <trkpt lat="47.09393" lon="6.0723">
        <ele>368.5</ele>
        <time>2012-03-29T15:30:25Z</time>
      </trkpt>
      <trkpt lat="47.09393" lon="6.0723">
        <ele>313.6</ele>
        <time>2012-03-29T15:30:37Z</time>
      </trkpt>
      <trkpt lat="47.09393" lon="6.0723">
        <ele>313.6</ele>
        <time>2012-03-29T15:30:41Z</time>
      </trkpt>
      <trkpt lat="47.09404" lon="6.07237">
        <ele>369.9</ele>
        <time>2012-03-29T15:30:46Z</time>
      </trkpt>
      <trkpt lat="47.09404" lon="6.07237">
        <ele>314</ele>
        <time>2012-03-29T15:30:58Z</time>
      </trkpt>
      <trkpt lat="47.09404" lon="6.07237">
        <ele>314</ele>
        <time>2012-03-29T15:31:07Z</time>
      </trkpt>
      <trkpt lat="47.09419" lon="6.07245">
        <ele>375</ele>
        <time>2012-03-29T15:31:11Z</time>
      </trkpt>
      <trkpt lat="47.09427" lon="6.07244">
        <ele>374.1</ele>
        <time>2012-03-29T15:31:16Z</time>
      </trkpt>
      <trkpt lat="47.09433" lon="6.07245">
        <ele>374.3</ele>
        <time>2012-03-29T15:31:23Z</time>
      </trkpt>
      <trkpt lat="47.09441" lon="6.07246">
        <ele>372.7</ele>
        <time>2012-03-29T15:31:27Z</time>
      </trkpt>
      <trkpt lat="47.09448" lon="6.07248">
        <ele>371.5</ele>
        <time>2012-03-29T15:31:32Z</time>
      </trkpt>
      <trkpt lat="47.09454" lon="6.07244">
        <ele>371.5</ele>
        <time>2012-03-29T15:31:40Z</time>
      </trkpt>
      <trkpt lat="47.0946" lon="6.0724">
        <ele>372.4</ele>
        <time>2012-03-29T15:31:48Z</time>
      </trkpt>
      <trkpt lat="47.09466" lon="6.07238">
        <ele>371.9</ele>
        <time>2012-03-29T15:31:54Z</time>
      </trkpt>
      <trkpt lat="47.09472" lon="6.07244">
        <ele>369</ele>
        <time>2012-03-29T15:31:59Z</time>
      </trkpt>
      <trkpt lat="47.09478" lon="6.07238">
        <ele>368.1</ele>
        <time>2012-03-29T15:32:07Z</time>
      </trkpt>
      <trkpt lat="47.09485" lon="6.07236">
        <ele>367.1</ele>
        <time>2012-03-29T15:32:12Z</time>
      </trkpt>
      <trkpt lat="47.0949" lon="6.0723">
        <ele>365.8</ele>
        <time>2012-03-29T15:32:21Z</time>
      </trkpt>
      <trkpt lat="47.09496" lon="6.07226">
        <ele>364.9</ele>
        <time>2012-03-29T15:32:26Z</time>
      </trkpt>
      <trkpt lat="47.09503" lon="6.07224">
        <ele>364.8</ele>
        <time>2012-03-29T15:32:32Z</time>
      </trkpt>
      <trkpt lat="47.0951" lon="6.07221">
        <ele>365.6</ele>
        <time>2012-03-29T15:32:39Z</time>
      </trkpt>
      <trkpt lat="47.09515" lon="6.07214">
        <ele>366.6</ele>
        <time>2012-03-29T15:32:45Z</time>
      </trkpt>
      <trkpt lat="47.09522" lon="6.07212">
        <ele>368.2</ele>
        <time>2012-03-29T15:32:52Z</time>
      </trkpt>
      <trkpt lat="47.09527" lon="6.07204">
        <ele>368.4</ele>
        <time>2012-03-29T15:33:00Z</time>
      </trkpt>
      <trkpt lat="47.09533" lon="6.072">
        <ele>368</ele>
        <time>2012-03-29T15:33:07Z</time>
      </trkpt>
      <trkpt lat="47.09539" lon="6.07193">
        <ele>367.3</ele>
        <time>2012-03-29T15:33:14Z</time>
      </trkpt>
      <trkpt lat="47.09545" lon="6.07187">
        <ele>366.6</ele>
        <time>2012-03-29T15:33:19Z</time>
      </trkpt>
      <trkpt lat="47.09552" lon="6.07183">
        <ele>367.7</ele>
        <time>2012-03-29T15:33:25Z</time>
      </trkpt>
      <trkpt lat="47.09558" lon="6.07179">
        <ele>369</ele>
        <time>2012-03-29T15:33:31Z</time>
      </trkpt>
      <trkpt lat="47.09564" lon="6.07175">
        <ele>369.5</ele>
        <time>2012-03-29T15:33:38Z</time>
      </trkpt>
      <trkpt lat="47.0957" lon="6.0717">
        <ele>368.3</ele>
        <time>2012-03-29T15:33:46Z</time>
      </trkpt>
      <trkpt lat="47.09577" lon="6.07171">
        <ele>368.5</ele>
        <time>2012-03-29T15:33:53Z</time>
      </trkpt>
      <trkpt lat="47.09583" lon="6.07169">
        <ele>368.6</ele>
        <time>2012-03-29T15:33:59Z</time>
      </trkpt>
      <trkpt lat="47.09583" lon="6.07169">
        <ele>313.2</ele>
        <time>2012-03-29T15:34:11Z</time>
      </trkpt>
      <trkpt lat="47.09583" lon="6.07169">
        <ele>313.2</ele>
        <time>2012-03-29T15:34:43Z</time>
      </trkpt>
      <trkpt lat="47.09597" lon="6.07172">
        <ele>365.8</ele>
        <time>2012-03-29T15:34:49Z</time>
      </trkpt>
      <trkpt lat="47.09603" lon="6.07168">
        <ele>366.8</ele>
        <time>2012-03-29T15:34:54Z</time>
      </trkpt>
      <trkpt lat="47.09609" lon="6.07163">
        <ele>367.9</ele>
        <time>2012-03-29T15:35:00Z</time>
      </trkpt>
      <trkpt lat="47.09616" lon="6.07167">
        <ele>366.3</ele>
        <time>2012-03-29T15:35:08Z</time>
      </trkpt>
      <trkpt lat="47.09622" lon="6.07164">
        <ele>366.9</ele>
        <time>2012-03-29T15:35:15Z</time>
      </trkpt>
      <trkpt lat="47.09622" lon="6.07164">
        <ele>314.3</ele>
        <time>2012-03-29T15:35:26Z</time>
      </trkpt>
      <trkpt lat="47.09622" lon="6.07164">
        <ele>314.3</ele>
        <time>2012-03-29T15:35:39Z</time>
      </trkpt>
      <trkpt lat="47.09636" lon="6.07162">
        <ele>361.3</ele>
        <time>2012-03-29T15:35:47Z</time>
      </trkpt>
      <trkpt lat="47.09643" lon="6.0716">
        <ele>362.5</ele>
        <time>2012-03-29T15:35:51Z</time>
      </trkpt>
      <trkpt lat="47.09649" lon="6.0716">
        <ele>363.8</ele>
        <time>2012-03-29T15:35:55Z</time>
      </trkpt>
      <trkpt lat="47.09657" lon="6.07157">
        <ele>364.3</ele>
        <time>2012-03-29T15:36:03Z</time>
      </trkpt>
      <trkpt lat="47.09664" lon="6.07159">
        <ele>365.4</ele>
        <time>2012-03-29T15:36:10Z</time>
      </trkpt>
      <trkpt lat="47.09671" lon="6.07158">
        <ele>366</ele>
        <time>2012-03-29T15:36:16Z</time>
      </trkpt>
      <trkpt lat="47.09677" lon="6.07158">
        <ele>367.7</ele>
        <time>2012-03-29T15:36:21Z</time>
      </trkpt>
      <trkpt lat="47.09684" lon="6.07158">
        <ele>367</ele>
        <time>2012-03-29T15:36:28Z</time>
      </trkpt>
      <trkpt lat="47.0969" lon="6.07159">
        <ele>366.2</ele>
        <time>2012-03-29T15:36:34Z</time>
      </trkpt>
      <trkpt lat="47.09696" lon="6.07165">
        <ele>366</ele>
        <time>2012-03-29T15:36:40Z</time>
      </trkpt>
      <trkpt lat="47.09702" lon="6.07169">
        <ele>367.9</ele>
        <time>2012-03-29T15:36:46Z</time>
      </trkpt>
      <trkpt lat="47.09709" lon="6.0717">
        <ele>367.3</ele>
        <time>2012-03-29T15:36:51Z</time>
      </trkpt>
      <trkpt lat="47.09715" lon="6.07173">
        <ele>367.4</ele>
        <time>2012-03-29T15:36:56Z</time>
      </trkpt>
      <trkpt lat="47.09722" lon="6.07177">
        <ele>367.2</ele>
        <time>2012-03-29T15:37:04Z</time>
      </trkpt>
      <trkpt lat="47.09729" lon="6.07178">
        <ele>368.4</ele>
        <time>2012-03-29T15:37:11Z</time>
      </trkpt>
      <trkpt lat="47.09736" lon="6.0718">
        <ele>366.7</ele>
        <time>2012-03-29T15:37:16Z</time>
      </trkpt>
      <trkpt lat="47.09743" lon="6.07183">
        <ele>366</ele>
        <time>2012-03-29T15:37:23Z</time>
      </trkpt>
      <trkpt lat="47.09749" lon="6.07186">
        <ele>366.9</ele>
        <time>2012-03-29T15:37:28Z</time>
      </trkpt>
      <trkpt lat="47.09817" lon="6.07273">
        <ele>377.2</ele>
        <time>2012-03-29T15:39:31Z</time>
      </trkpt>
      <trkpt lat="47.09821" lon="6.07281">
        <ele>379.1</ele>
        <time>2012-03-29T15:39:37Z</time>
      </trkpt>
      <trkpt lat="47.09823" lon="6.07289">
        <ele>376.4</ele>
        <time>2012-03-29T15:39:43Z</time>
      </trkpt>
      <trkpt lat="47.09824" lon="6.07299">
        <ele>377.1</ele>
        <time>2012-03-29T15:39:50Z</time>
      </trkpt>
      <trkpt lat="47.09824" lon="6.07299">
        <ele>316.9</ele>
        <time>2012-03-29T15:40:02Z</time>
      </trkpt>
      <trkpt lat="47.09824" lon="6.07299">
        <ele>316.9</ele>
        <time>2012-03-29T15:40:02Z</time>
      </trkpt>
      <trkpt lat="47.09833" lon="6.07314">
        <ele>381.7</ele>
        <time>2012-03-29T15:40:08Z</time>
      </trkpt>
      <trkpt lat="47.09836" lon="6.07322">
        <ele>382.6</ele>
        <time>2012-03-29T15:40:16Z</time>
      </trkpt>
      <trkpt lat="47.09836" lon="6.07322">
        <ele>314.9</ele>
        <time>2012-03-29T15:40:28Z</time>
      </trkpt>
      <trkpt lat="47.09836" lon="6.07322">
        <ele>314.9</ele>
        <time>2012-03-29T15:40:52Z</time>
      </trkpt>
      <trkpt lat="47.09837" lon="6.07341">
        <ele>377.3</ele>
        <time>2012-03-29T15:40:57Z</time>
      </trkpt>
      <trkpt lat="47.0983" lon="6.07348">
        <ele>378.4</ele>
        <time>2012-03-29T15:41:05Z</time>
      </trkpt>
      <trkpt lat="47.09833" lon="6.07358">
        <ele>377.6</ele>
        <time>2012-03-29T15:41:11Z</time>
      </trkpt>
      <trkpt lat="47.09837" lon="6.07365">
        <ele>377.7</ele>
        <time>2012-03-29T15:41:16Z</time>
      </trkpt>
      <trkpt lat="47.09841" lon="6.07374">
        <ele>378.6</ele>
        <time>2012-03-29T15:41:23Z</time>
      </trkpt>
      <trkpt lat="47.09841" lon="6.07385">
        <ele>379</ele>
        <time>2012-03-29T15:41:29Z</time>
      </trkpt>
      <trkpt lat="47.0984" lon="6.07395">
        <ele>379.2</ele>
        <time>2012-03-29T15:41:36Z</time>
      </trkpt>
      <trkpt lat="47.0984" lon="6.07406">
        <ele>378.8</ele>
        <time>2012-03-29T15:41:46Z</time>
      </trkpt>
      <trkpt lat="47.0984" lon="6.07406">
        <ele>314.5</ele>
        <time>2012-03-29T15:41:57Z</time>
      </trkpt>
      <trkpt lat="47.0984" lon="6.07406">
        <ele>314.5</ele>
        <time>2012-03-29T15:42:00Z</time>
      </trkpt>
      <trkpt lat="47.0984" lon="6.07406">
        <ele>314.5</ele>
        <time>2012-03-29T15:42:11Z</time>
      </trkpt>
      <trkpt lat="47.0984" lon="6.07406">
        <ele>314.5</ele>
        <time>2012-03-29T15:42:27Z</time>
      </trkpt>
      <trkpt lat="47.0983" lon="6.07429">
        <ele>378.7</ele>
        <time>2012-03-29T15:42:30Z</time>
      </trkpt>
      <trkpt lat="47.09828" lon="6.0744">
        <ele>380.8</ele>
        <time>2012-03-29T15:42:34Z</time>
      </trkpt>
      <trkpt lat="47.09827" lon="6.0745">
        <ele>380.1</ele>
        <time>2012-03-29T15:42:38Z</time>
      </trkpt>
      <trkpt lat="47.09831" lon="6.07458">
        <ele>377.4</ele>
        <time>2012-03-29T15:42:42Z</time>
      </trkpt>
      <trkpt lat="47.09832" lon="6.07469">
        <ele>378.1</ele>
        <time>2012-03-29T15:42:48Z</time>
      </trkpt>
      <trkpt lat="47.09829" lon="6.0748">
        <ele>378.2</ele>
        <time>2012-03-29T15:42:57Z</time>
      </trkpt>
      <trkpt lat="47.09825" lon="6.07487">
        <ele>377.9</ele>
        <time>2012-03-29T15:43:01Z</time>
      </trkpt>
      <trkpt lat="47.09823" lon="6.07496">
        <ele>379.4</ele>
        <time>2012-03-29T15:43:08Z</time>
      </trkpt>
      <trkpt lat="47.09823" lon="6.07496">
        <ele>315.8</ele>
        <time>2012-03-29T15:43:20Z</time>
      </trkpt>
      <trkpt lat="47.09823" lon="6.07496">
        <ele>315.8</ele>
        <time>2012-03-29T15:47:56Z</time>
      </trkpt>
      <trkpt lat="47.09815" lon="6.07511">
        <ele>377.3</ele>
        <time>2012-03-29T15:48:03Z</time>
      </trkpt>
      <trkpt lat="47.09815" lon="6.07511">
        <ele>316.6</ele>
        <time>2012-03-29T15:48:15Z</time>
      </trkpt>
    </trkseg>
    </trkseg>
  </trk>
</gpx>